Observation data for Ralls on 04/16/2021      Previous  Date  Next       Current Mesonet Observations  Soil Data  Daily Summary Page  Observations in Plain Language
KRLS 160500Z 09010KT 09/09 A2988 RMK A01 T00860085  RH  099%=      5-min Rain = 0
KRLS 160501Z 09011KT 09/09 A2988 RMK A01 T00860085  RH  099%=      5-min Rain = 0
KRLS 160502Z 09012KT 09/09 A2988 RMK A01 T00860085  RH  099%=      5-min Rain = 0
KRLS 160503Z 09011KT 09/09 A2988 RMK A01 T00860085  RH  099%=      5-min Rain = 0
KRLS 160504Z 10012KT 09/09 A2988 RMK A01 T00860085  RH  099%=      5-min Rain = 0
KRLS 160505Z 10012KT 09/09 A2989 RMK A01 T00860085  RH  099%=      5-min Rain = 0
KRLS 160506Z 10013KT 09/09 A2989 RMK A01 T00860085  RH  099%=      5-min Rain = 0
KRLS 160507Z 10013KT 09/09 A2989 RMK A01 T00860085  RH  099%=      5-min Rain = 0
KRLS 160508Z 10013KT 09/09 A2989 RMK A01 T00860085  RH  099%=      5-min Rain = 0
KRLS 160509Z 10012KT 09/09 A2989 RMK A01 T00860085  RH  099%=      5-min Rain = 0
KRLS 160510Z 10011KT 09/09 A2989 RMK A01 T00860085  RH  099%=      5-min Rain = 0
KRLS 160511Z 10012KT 09/09 A2989 RMK A01 T00860085  RH  099%=      5-min Rain = 0
KRLS 160512Z 09011KT 09/09 A2989 RMK A01 T00860085  RH  099%=      5-min Rain = 0
KRLS 160513Z 10013KT 09/09 A2989 RMK A01 T00860085  RH  099%=      5-min Rain = 0
KRLS 160514Z 10012KT 09/09 A2989 RMK A01 T00860085  RH  099%=      5-min Rain = 0
KRLS 160515Z 10011KT 09/09 A2989 RMK A01 T00860085  RH  099%=      5-min Rain = 0
KRLS 160516Z 10009KT 09/09 A2989 RMK A01 T00860085  RH  099%=      5-min Rain = 0
KRLS 160517Z 10010KT 09/09 A2989 RMK A01 T00860085  RH  099%=      5-min Rain = 0
KRLS 160518Z 10012KT 09/09 A2989 RMK A01 T00860085  RH  099%=      5-min Rain = 0
KRLS 160519Z 10010KT 09/09 A2989 RMK A01 T00860085  RH  099%=      5-min Rain = 0
KRLS 160520Z 10009KT 09/09 A2989 RMK A01 T00860085  RH  099%=      5-min Rain = 0
KRLS 160521Z 10009KT 09/09 A2989 RMK A01 T00860085  RH  099%=      5-min Rain = 0
KRLS 160522Z 10010KT 09/09 A2989 RMK A01 T00860085  RH  099%=      5-min Rain = 0
KRLS 160523Z 10011KT 09/09 A2989 RMK A01 T00860085  RH  099%=      5-min Rain = 0
KRLS 160524Z 10011KT 09/09 A2989 RMK A01 T00860085  RH  099%=      5-min Rain = 0
KRLS 160525Z 10010KT 09/08 A2989 RMK A01 T00860084  RH  099%=      5-min Rain = 0
KRLS 160526Z 09010KT 09/08 A2989 RMK A01 T00860084  RH  099%=      5-min Rain = 0
KRLS 160527Z 10009KT 09/08 A2988 RMK A01 T00860084  RH  099%=      5-min Rain = 0
KRLS 160528Z 10009KT 09/09 A2988 RMK A01 T00860085  RH  099%=      5-min Rain = 0
KRLS 160529Z 10009KT 09/09 A2988 RMK A01 T00860085  RH  099%=      5-min Rain = 0
KRLS 160530Z 10009KT 09/09 A2988 RMK A01 T00860085  RH  099%=      5-min Rain = 0
KRLS 160531Z 10009KT 09/09 A2988 RMK A01 T00860085  RH  099%=      5-min Rain = 0
KRLS 160532Z 09009KT 09/09 A2988 RMK A01 T00860085  RH  099%=      5-min Rain = 0
KRLS 160533Z 09010KT 09/09 A2988 RMK A01 T00860085  RH  099%=      5-min Rain = 0
KRLS 160534Z 10010KT 09/09 A2988 RMK A01 T00860085  RH  099%=      5-min Rain = 0
KRLS 160535Z 10010KT 09/08 A2988 RMK A01 T00850084  RH  099%=      5-min Rain = 0
KRLS 160536Z 10012KT 09/08 A2988 RMK A01 T00850084  RH  099%=      5-min Rain = 0
KRLS 160537Z 10012KT 09/08 A2988 RMK A01 T00850084  RH  099%=      5-min Rain = 0
KRLS 160538Z 10010KT 09/08 A2988 RMK A01 T00850084  RH  099%=      5-min Rain = 0
KRLS 160539Z 10011KT 09/08 A2988 RMK A01 T00850084  RH  099%=      5-min Rain = 0
KRLS 160540Z 10013KT 09/08 A2988 RMK A01 T00850084  RH  099%=      5-min Rain = 0
KRLS 160541Z 10012KT 09/08 A2988 RMK A01 T00850084  RH  099%=      5-min Rain = 0
KRLS 160542Z 10012KT 09/08 A2988 RMK A01 T00850084  RH  099%=      5-min Rain = 0
KRLS 160543Z 10011KT 09/08 A2988 RMK A01 T00850084  RH  099%=      5-min Rain = 0
KRLS 160544Z 10012KT 09/08 A2988 RMK A01 T00850084  RH  099%=      5-min Rain = 0
KRLS 160545Z 11012KT 09/08 A2988 RMK A01 T00850084  RH  099%=      5-min Rain = 0
KRLS 160546Z 11013KT 08/08 A2988 RMK A01 T00840083  RH  099%=      5-min Rain = 0
KRLS 160547Z 11011KT 08/08 A2988 RMK A01 T00840083  RH  099%=      5-min Rain = 0
KRLS 160548Z 11013KT 08/08 A2988 RMK A01 T00840083  RH  099%=      5-min Rain = 0
KRLS 160549Z 11013KT 08/08 A2988 RMK A01 T00840083  RH  099%=      5-min Rain = 0
KRLS 160550Z 11012KT 08/08 A2988 RMK A01 T00840083  RH  099%=      5-min Rain = 0
KRLS 160551Z 11012KT 08/08 A2988 RMK A01 T00840083  RH  099%=      5-min Rain = 0
KRLS 160552Z 11012KT 08/08 A2988 RMK A01 T00840083  RH  099%=      5-min Rain = 0
KRLS 160553Z 11011KT 08/08 A2988 RMK A01 T00840083  RH  099%=      5-min Rain = 0
KRLS 160554Z 11011KT 08/08 A2988 RMK A01 T00840083  RH  099%=      5-min Rain = 0
KRLS 160555Z 10012KT 08/08 A2987 RMK A01 T00840083  RH  099%=      5-min Rain = 0
KRLS 160556Z 11012KT 08/08 A2988 RMK A01 T00840083  RH  099%=      5-min Rain = 0
KRLS 160557Z 11013KT 08/08 A2988 RMK A01 T00840083  RH  099%=      5-min Rain = 0
KRLS 160558Z 11011KT 08/08 A2988 RMK A01 T00840083  RH  099%=      5-min Rain = 0
KRLS 160559Z 10013KT 08/08 A2988 RMK A01 T00840083  RH  099%=      5-min Rain = 0
KRLS 160600Z 10010KT 08/08 A2988 RMK A01 T00840083  RH  099%=      5-min Rain = 0
KRLS 160601Z 10012KT 08/08 A2988 RMK A01 T00840083  RH  099%=      5-min Rain = 0
KRLS 160602Z 10009KT 08/08 A2988 RMK A01 T00840083  RH  099%=      5-min Rain = 0
KRLS 160603Z 11011KT 08/08 A2988 RMK A01 T00840083  RH  099%=      5-min Rain = 0
KRLS 160604Z 11011KT 08/08 A2988 RMK A01 T00840083  RH  099%=      5-min Rain = 0
KRLS 160605Z 11011KT 08/08 A2988 RMK A01 T00840083  RH  099%=      5-min Rain = 0
KRLS 160606Z 10010KT 08/08 A2988 RMK A01 T00840083  RH  099%=      5-min Rain = 0
KRLS 160607Z 10011KT 08/08 A2988 RMK A01 T00840083  RH  099%=      5-min Rain = 0
KRLS 160608Z 11011KT 08/08 A2988 RMK A01 T00840083  RH  099%=      5-min Rain = 0
KRLS 160609Z 10011KT 08/08 A2988 RMK A01 T00840083  RH  099%=      5-min Rain = 0
KRLS 160610Z 11010KT 08/08 A2988 RMK A01 T00840083  RH  099%=      5-min Rain = 0
KRLS 160611Z 11010KT 08/08 A2988 RMK A01 T00840083  RH  099%=      5-min Rain = 0
KRLS 160612Z 11012KT 08/08 A2988 RMK A01 T00840083  RH  099%=      5-min Rain = 0
KRLS 160613Z 11011KT 08/08 A2988 RMK A01 T00840082  RH  099%=      5-min Rain = 0
KRLS 160614Z 11012KT 08/08 A2988 RMK A01 T00830082  RH  099%=      5-min Rain = 0
KRLS 160615Z 11011KT 08/08 A2988 RMK A01 T00830082  RH  099%=      5-min Rain = 0
KRLS 160616Z 11009KT 08/08 A2988 RMK A01 T00830082  RH  099%=      5-min Rain = 0
KRLS 160617Z 10010KT 08/08 A2988 RMK A01 T00830082  RH  099%=      5-min Rain = 0
KRLS 160618Z 10009KT 08/08 A2988 RMK A01 T00830082  RH  099%=      5-min Rain = 0
KRLS 160619Z 10009KT 08/08 A2988 RMK A01 T00830082  RH  099%=      5-min Rain = 0
KRLS 160620Z 10009KT 08/08 A2988 RMK A01 T00830082  RH  099%=      5-min Rain = 0
KRLS 160621Z 10010KT 08/08 A2988 RMK A01 T00830082  RH  099%=      5-min Rain = 0
KRLS 160622Z 10010KT 08/08 A2988 RMK A01 T00830082  RH  099%=      5-min Rain = 0
KRLS 160623Z 10011KT 08/08 A2988 RMK A01 T00830082  RH  099%=      5-min Rain = 0
KRLS 160624Z 10011KT 08/08 A2988 RMK A01 T00830082  RH  099%=      5-min Rain = 0
KRLS 160625Z 10011KT 08/08 A2988 RMK A01 T00830082  RH  099%=      5-min Rain = 0
KRLS 160626Z 10010KT 08/08 A2988 RMK A01 T00830082  RH  099%=      5-min Rain = 0
KRLS 160627Z 10011KT 08/08 A2988 RMK A01 T00830082  RH  099%=      5-min Rain = 0
KRLS 160628Z 10010KT 08/08 A2988 RMK A01 T00830082  RH  099%=      5-min Rain = 0
KRLS 160629Z 11010KT 08/08 A2987 RMK A01 T00830082  RH  099%=      5-min Rain = 0
KRLS 160630Z 11009KT 08/08 A2987 RMK A01 T00830082  RH  099%=      5-min Rain = 0
KRLS 160631Z 11010KT 08/08 A2987 RMK A01 T00830082  RH  099%=      5-min Rain = 0
KRLS 160632Z 11010KT 08/08 A2987 RMK A01 T00830082  RH  099%=      5-min Rain = 0
KRLS 160633Z 11011KT 08/08 A2987 RMK A01 T00820082  RH  099%=      5-min Rain = 0
KRLS 160634Z 11009KT 08/08 A2987 RMK A01 T00830082  RH  099%=      5-min Rain = 0
KRLS 160635Z 11009KT 08/08 A2987 RMK A01 T00820082  RH  099%=      5-min Rain = 0
KRLS 160636Z 11010KT 08/08 A2987 RMK A01 T00830082  RH  099%=      5-min Rain = 0
KRLS 160637Z 11012KT 08/08 A2987 RMK A01 T00820081  RH  099%=      5-min Rain = 0
KRLS 160638Z 11011KT 08/08 A2987 RMK A01 T00820081  RH  099%=      5-min Rain = 0
KRLS 160639Z 11011KT 08/08 A2987 RMK A01 T00820081  RH  099%=      5-min Rain = 0
KRLS 160640Z 11010KT 08/08 A2987 RMK A01 T00820081  RH  099%=      5-min Rain = 0
KRLS 160641Z 12011KT 08/08 A2987 RMK A01 T00820081  RH  099%=      5-min Rain = 0
KRLS 160642Z 12009KT 08/08 A2987 RMK A01 T00820081  RH  099%=      5-min Rain = 0
KRLS 160643Z 12009KT 08/08 A2987 RMK A01 T00820081  RH  100%=      5-min Rain = 0
KRLS 160644Z 11008KT 08/08 A2987 RMK A01 T00820081  RH  100%=      5-min Rain = 0
KRLS 160645Z 11008KT 08/08 A2987 RMK A01 T00820081  RH  100%=      5-min Rain = 0
KRLS 160646Z 11010KT 08/08 A2987 RMK A01 T00820081  RH  100%=      5-min Rain = 0
KRLS 160647Z 12010KT 08/08 A2987 RMK A01 T00820081  RH  100%=      5-min Rain = 0
KRLS 160648Z 12010KT 08/08 A2987 RMK A01 T00820081  RH  100%=      5-min Rain = 0
KRLS 160649Z 11009KT 08/08 A2987 RMK A01 T00820081  RH  100%=      5-min Rain = 0
KRLS 160650Z 12008KT 08/08 A2987 RMK A01 T00820081  RH  100%=      5-min Rain = 0
KRLS 160651Z 12010KT 08/08 A2987 RMK A01 T00820081  RH  100%=      5-min Rain = 0
KRLS 160652Z 12011KT 08/08 A2987 RMK A01 T00820081  RH  100%=      5-min Rain = 0
KRLS 160653Z 11009KT 08/08 A2987 RMK A01 T00820081  RH  100%=      5-min Rain = 0
KRLS 160654Z 12009KT 08/08 A2986 RMK A01 T00820081  RH  100%=      5-min Rain = 0
KRLS 160655Z 12010KT 08/08 A2986 RMK A01 T00820081  RH  100%=      5-min Rain = 0
KRLS 160656Z 12011KT 08/08 A2986 RMK A01 T00820081  RH  100%=      5-min Rain = 0
KRLS 160657Z 12010KT 08/08 A2986 RMK A01 T00820081  RH  100%=      5-min Rain = 0
KRLS 160658Z 12009KT 08/08 A2986 RMK A01 T00820081  RH  100%=      5-min Rain = 0
KRLS 160659Z 12009KT 08/08 A2986 RMK A01 T00820081  RH  100%=      5-min Rain = 0
KRLS 160700Z 12009KT 08/08 A2986 RMK A01 T00820081  RH  100%=      5-min Rain = 0
KRLS 160701Z 12007KT 08/08 A2986 RMK A01 T00820081  RH  100%=      5-min Rain = 0
KRLS 160702Z 12008KT 08/08 A2986 RMK A01 T00820081  RH  100%=      5-min Rain = 0
KRLS 160703Z 12009KT 08/08 A2986 RMK A01 T00820081  RH  100%=      5-min Rain = 0
KRLS 160704Z 12010KT 08/08 A2985 RMK A01 T00820081  RH  100%=      5-min Rain = 0
KRLS 160705Z 12011KT 08/08 A2985 RMK A01 T00820081  RH  100%=      5-min Rain = 0
KRLS 160706Z 12011KT 08/08 A2985 RMK A01 T00820081  RH  100%=      5-min Rain = 0
KRLS 160707Z 12011KT 08/08 A2985 RMK A01 T00820081  RH  100%=      5-min Rain = 0
KRLS 160708Z 12010KT 08/08 A2985 RMK A01 T00820081  RH  100%=      5-min Rain = 0
KRLS 160709Z 12011KT 08/08 A2985 RMK A01 T00820081  RH  100%=      5-min Rain = 0
KRLS 160710Z 12011KT 08/08 A2985 RMK A01 T00820081  RH  100%=      5-min Rain = 0
KRLS 160711Z 12011KT 08/08 A2985 RMK A01 T00810081  RH  100%=      5-min Rain = 0
KRLS 160712Z 12009KT 08/08 A2985 RMK A01 T00810081  RH  100%=      5-min Rain = 0
KRLS 160713Z 12009KT 08/08 A2985 RMK A01 T00810081  RH  100%=      5-min Rain = 0
KRLS 160714Z 12007KT 08/08 A2985 RMK A01 T00810081  RH  100%=      5-min Rain = 0
KRLS 160715Z 13009KT 08/08 A2985 RMK A01 T00810081  RH  100%=      5-min Rain = 0
KRLS 160716Z 13011KT 08/08 A2984 RMK A01 T00810081  RH  100%=      5-min Rain = 0
KRLS 160717Z 13009KT 08/08 A2984 RMK A01 T00810081  RH  100%=      5-min Rain = 0
KRLS 160718Z 13009KT 08/08 A2984 RMK A01 T00810081  RH  100%=      5-min Rain = 0
KRLS 160719Z 13010KT 08/08 A2984 RMK A01 T00810081  RH  100%=      5-min Rain = 0
KRLS 160720Z 13010KT 08/08 A2984 RMK A01 T00810081  RH  100%=      5-min Rain = 0
KRLS 160721Z 13010KT 08/08 A2984 RMK A01 T00810081  RH  100%=      5-min Rain = 0
KRLS 160722Z 13011KT 08/08 A2984 RMK A01 T00810081  RH  100%=      5-min Rain = 0
KRLS 160723Z 13011KT 08/08 A2984 RMK A01 T00810080  RH  100%=      5-min Rain = 0
KRLS 160724Z 13011KT 08/08 A2984 RMK A01 T00810080  RH  100%=      5-min Rain = 0
KRLS 160725Z 13011KT 08/08 A2984 RMK A01 T00810080  RH  100%=      5-min Rain = 0
KRLS 160726Z 13009KT 08/08 A2984 RMK A01 T00810080  RH  100%=      5-min Rain = 0
KRLS 160727Z 13008KT 08/08 A2984 RMK A01 T00810080  RH  100%=      5-min Rain = 0
KRLS 160728Z 13008KT 08/08 A2984 RMK A01 T00810080  RH  100%=      5-min Rain = 0
KRLS 160729Z 12010KT 08/08 A2984 RMK A01 T00810080  RH  100%=      5-min Rain = 0
KRLS 160730Z 13009KT 08/08 A2984 RMK A01 T00810080  RH  100%=      5-min Rain = 0
KRLS 160731Z 12008KT 08/08 A2984 RMK A01 T00810080  RH  100%=      5-min Rain = 0
KRLS 160732Z 12009KT 08/08 A2984 RMK A01 T00810080  RH  100%=      5-min Rain = 0
KRLS 160733Z 13009KT 08/08 A2984 RMK A01 T00810080  RH  100%=      5-min Rain = 0
KRLS 160734Z 12008KT 08/08 A2984 RMK A01 T00810081  RH  100%=      5-min Rain = 0
KRLS 160735Z 13007KT 08/08 A2984 RMK A01 T00810080  RH  100%=      5-min Rain = 0
KRLS 160736Z 12007KT 08/08 A2984 RMK A01 T00810081  RH  100%=      5-min Rain = 0
KRLS 160737Z 12008KT 08/08 A2984 RMK A01 T00810081  RH  100%=      5-min Rain = 0
KRLS 160738Z 12008KT 08/08 A2984 RMK A01 T00810081  RH  100%=      5-min Rain = 0
KRLS 160739Z 11008KT 08/08 A2984 RMK A01 T00810081  RH  100%=      5-min Rain = 0
KRLS 160740Z 11008KT 08/08 A2984 RMK A01 T00810081  RH  100%=      5-min Rain = 0
KRLS 160741Z 11009KT 08/08 A2984 RMK A01 T00810081  RH  100%=      5-min Rain = 0
KRLS 160742Z 11008KT 08/08 A2984 RMK A01 T00810081  RH  100%=      5-min Rain = 0
KRLS 160743Z 11008KT 08/08 A2984 RMK A01 T00810081  RH  100%=      5-min Rain = 0
KRLS 160744Z 11006KT 08/08 A2984 RMK A01 T00810081  RH  100%=      5-min Rain = 0
KRLS 160745Z 11008KT 08/08 A2984 RMK A01 T00810081  RH  100%=      5-min Rain = 0
KRLS 160746Z 11009KT 08/08 A2984 RMK A01 T00810081  RH  100%=      5-min Rain = 0
KRLS 160747Z 10007KT 08/08 A2984 RMK A01 T00810081  RH  100%=      5-min Rain = 0
KRLS 160748Z 11008KT 08/08 A2984 RMK A01 T00810081  RH  100%=      5-min Rain = 0
KRLS 160749Z 10008KT 08/08 A2984 RMK A01 T00820082  RH  100%=      5-min Rain = 0
KRLS 160750Z 10006KT 08/08 A2984 RMK A01 T00820081  RH  100%=      5-min Rain = 0
KRLS 160751Z 10005KT 08/08 A2984 RMK A01 T00820081  RH  100%=      5-min Rain = 0
KRLS 160752Z 10008KT 08/08 A2984 RMK A01 T00820081  RH  100%=      5-min Rain = 0
KRLS 160753Z 11007KT 08/08 A2984 RMK A01 T00820082  RH  100%=      5-min Rain = 0
KRLS 160754Z 12009KT 08/08 A2984 RMK A01 T00820082  RH  100%=      5-min Rain = 0
KRLS 160755Z 11010KT 08/08 A2984 RMK A01 T00820081  RH  100%=      5-min Rain = 0
KRLS 160756Z 12009KT 08/08 A2984 RMK A01 T00820081  RH  100%=      5-min Rain = 0
KRLS 160757Z 12008KT 08/08 A2984 RMK A01 T00820081  RH  100%=      5-min Rain = 0
KRLS 160758Z 12008KT 08/08 A2984 RMK A01 T00820081  RH  100%=      5-min Rain = 0
KRLS 160759Z 13009KT 08/08 A2984 RMK A01 T00820081  RH  100%=      5-min Rain = 0
KRLS 160800Z 13008KT 08/08 A2984 RMK A01 T00820081  RH  100%=      5-min Rain = 0
KRLS 160801Z 13009KT 08/08 A2984 RMK A01 T00820082  RH  100%=      5-min Rain = 0
KRLS 160802Z 13008KT 08/08 A2984 RMK A01 T00820081  RH  100%=      5-min Rain = 0
KRLS 160803Z 13008KT 08/08 A2984 RMK A01 T00820081  RH  100%=      5-min Rain = 0
KRLS 160804Z 13008KT 08/08 A2983 RMK A01 T00820081  RH  100%=      5-min Rain = 0
KRLS 160805Z 13007KT 08/08 A2983 RMK A01 T00820082  RH  100%=      5-min Rain = 0
KRLS 160806Z 13008KT 08/08 A2983 RMK A01 T00820082  RH  100%=      5-min Rain = 0
KRLS 160807Z 13010KT 08/08 A2983 RMK A01 T00820081  RH  100%=      5-min Rain = 0
KRLS 160808Z 13009KT 08/08 A2984 RMK A01 T00820081  RH  100%=      5-min Rain = 0
KRLS 160809Z 13008KT 08/08 A2984 RMK A01 T00820081  RH  100%=      5-min Rain = 0
KRLS 160810Z 12007KT 08/08 A2984 RMK A01 T00820082  RH  100%=      5-min Rain = 0
KRLS 160811Z 12007KT 08/08 A2984 RMK A01 T00820082  RH  100%=      5-min Rain = 0
KRLS 160812Z 12007KT 08/08 A2984 RMK A01 T00820081  RH  100%=      5-min Rain = 0
KRLS 160813Z 12005KT 08/08 A2984 RMK A01 T00820081  RH  100%=      5-min Rain = 0
KRLS 160814Z 12005KT 08/08 A2984 RMK A01 T00820082  RH  100%=      5-min Rain = 0
KRLS 160815Z 12005KT 08/08 A2984 RMK A01 T00820082  RH  100%=      5-min Rain = 0
KRLS 160816Z 12007KT 08/08 A2984 RMK A01 T00820082  RH  100%=      5-min Rain = 0
KRLS 160817Z 13007KT 08/08 A2984 RMK A01 T00820082  RH  100%=      5-min Rain = 0
KRLS 160818Z 12005KT 08/08 A2984 RMK A01 T00820082  RH  100%=      5-min Rain = 0
KRLS 160819Z 13007KT 08/08 A2984 RMK A01 T00820082  RH  100%=      5-min Rain = 0
KRLS 160820Z 13006KT 08/08 A2983 RMK A01 T00820082  RH  100%=      5-min Rain = 0
KRLS 160821Z 12006KT 08/08 A2984 RMK A01 T00820082  RH  100%=      5-min Rain = 0
KRLS 160822Z 12007KT 08/08 A2984 RMK A01 T00820082  RH  100%=      5-min Rain = 0
KRLS 160823Z 12006KT 08/08 A2984 RMK A01 T00820082  RH  100%=      5-min Rain = 0
KRLS 160824Z 13005KT 08/08 A2984 RMK A01 T00820082  RH  100%=      5-min Rain = 0
KRLS 160825Z 12005KT 08/08 A2984 RMK A01 T00820082  RH  100%=      5-min Rain = 0
KRLS 160826Z 13005KT 08/08 A2984 RMK A01 T00820082  RH  100%=      5-min Rain = 0
KRLS 160827Z 13007KT 08/08 A2984 RMK A01 T00820082  RH  100%=      5-min Rain = 0
KRLS 160828Z 13005KT 08/08 A2984 RMK A01 T00820082  RH  100%=      5-min Rain = 0
KRLS 160829Z 12003KT 08/08 A2984 RMK A01 T00820082  RH  100%=      5-min Rain = 0
KRLS 160830Z 13001KT 08/08 A2985 RMK A01 T00820082  RH  100%=      5-min Rain = 0
KRLS 160831Z 33003KT 08/08 A2987 RMK A01 T00820082  RH  100%=      5-min Rain = 0
KRLS 160832Z 33009KT 08/08 A2988 RMK A01 T00820082  RH  100%=      5-min Rain = 0
KRLS 160833Z 33014KT 08/08 A2989 RMK A01 T00830083  RH  100%=      5-min Rain = 0
KRLS 160834Z 33014KT 08/08 A2989 RMK A01 T00830083  RH  100%=      5-min Rain = 0
KRLS 160835Z 33015KT 08/08 A299 RMK A01 T00830083  RH  100%=      5-min Rain = 0
KRLS 160836Z 33013KT 08/08 A2989 RMK A01 T00830083  RH  100%=      5-min Rain = 0
KRLS 160837Z 33011KT 08/08 A2989 RMK A01 T00830083  RH  100%=      5-min Rain = 0
KRLS 160838Z 34007KT 08/08 A2988 RMK A01 T00840084  RH  100%=      5-min Rain = 0
KRLS 160839Z 00005KT 08/08 A2988 RMK A01 T00840084  RH  100%=      5-min Rain = 0
KRLS 160840Z 00003KT 08/08 A2987 RMK A01 T00840084  RH  100%=      5-min Rain = 0
KRLS 160841Z 01002KT 08/08 A2987 RMK A01 T00830083  RH  100%=      5-min Rain = 0
KRLS 160842Z 01003KT 08/08 A2987 RMK A01 T00830083  RH  100%=      5-min Rain = 0
KRLS 160843Z 34005KT 08/08 A2988 RMK A01 T00830083  RH  100%=      5-min Rain = 0.01
KRLS 160844Z 34008KT 08/08 A2989 RMK A01 T00830083  RH  100%=      5-min Rain = 0
KRLS 160845Z 34009KT 08/08 A2989 RMK A01 T00840084  RH  100%=      5-min Rain = 0
KRLS 160846Z 34009KT 08/08 A2989 RMK A01 T00840084  RH  100%=      5-min Rain = 0
KRLS 160847Z 34009KT 08/08 A2989 RMK A01 T00840084  RH  100%=      5-min Rain = 0
KRLS 160848Z 34009KT 09/08 A2989 RMK A01 T00850084  RH  100%=      5-min Rain = 0
KRLS 160849Z 34009KT 09/09 A2989 RMK A01 T00850085  RH  100%=      5-min Rain = 0
KRLS 160850Z 34009KT 09/09 A2989 RMK A01 T00850085  RH  100%=      5-min Rain = 0
KRLS 160851Z 35009KT 09/09 A2989 RMK A01 T00850085  RH  100%=      5-min Rain = 0
KRLS 160852Z 35007KT 09/09 A2988 RMK A01 T00850085  RH  100%=      5-min Rain = 0
KRLS 160853Z 35007KT 09/09 A2988 RMK A01 T00850085  RH  100%=      5-min Rain = 0
KRLS 160854Z 36006KT 09/09 A2988 RMK A01 T00850085  RH  100%=      5-min Rain = 0
KRLS 160855Z 35006KT 09/09 A2988 RMK A01 T00850085  RH  100%=      5-min Rain = 0
KRLS 160856Z 35006KT 09/09 A2988 RMK A01 T00850085  RH  100%=      5-min Rain = 0
KRLS 160857Z 35007KT 09/09 A2988 RMK A01 T00850085  RH  100%=      5-min Rain = 0
KRLS 160858Z 35007KT 09/09 A2988 RMK A01 T00850085  RH  100%=      5-min Rain = 0
KRLS 160859Z 35009KT 09/09 A2989 RMK A01 T00850085  RH  100%=      5-min Rain = 0
KRLS 160900Z 35008KT 09/09 A2988 RMK A01 T00850085  RH  100%=      5-min Rain = 0
KRLS 160901Z 36006KT 09/09 A2988 RMK A01 T00850085  RH  100%=      5-min Rain = 0
KRLS 160902Z 00006KT 09/09 A2988 RMK A01 T00850085  RH  100%=      5-min Rain = 0
KRLS 160903Z 00005KT 09/09 A2988 RMK A01 T00850085  RH  100%=      5-min Rain = 0
KRLS 160904Z 00004KT 09/09 A2988 RMK A01 T00850085  RH  100%=      5-min Rain = 0
KRLS 160905Z 01004KT 09/09 A2988 RMK A01 T00850085  RH  100%=      5-min Rain = 0
KRLS 160906Z 00004KT 09/09 A2988 RMK A01 T00850085  RH  100%=      5-min Rain = 0.01
KRLS 160907Z 00004KT 09/09 A2988 RMK A01 T00850085  RH  100%=      5-min Rain = 0
KRLS 160908Z 01004KT 09/09 A2988 RMK A01 T00850085  RH  100%=      5-min Rain = 0
KRLS 160909Z 01006KT 09/09 A2988 RMK A01 T00850085  RH  100%=      5-min Rain = 0
KRLS 160910Z 01004KT 09/09 A2988 RMK A01 T00850085  RH  100%=      5-min Rain = 0
KRLS 160911Z 01005KT 09/09 A2987 RMK A01 T00850085  RH  100%=      5-min Rain = 0
KRLS 160912Z 01006KT 09/09 A2987 RMK A01 T00850085  RH  100%=      5-min Rain = 0
KRLS 160913Z 02005KT 09/09 A2987 RMK A01 T00850085  RH  100%=      5-min Rain = 0
KRLS 160914Z 01005KT 09/09 A2987 RMK A01 T00850085  RH  100%=      5-min Rain = 0
KRLS 160915Z 01004KT 09/09 A2987 RMK A01 T00850085  RH  100%=      5-min Rain = 0
KRLS 160916Z 01005KT 09/09 A2987 RMK A01 T00850085  RH  100%=      5-min Rain = 0
KRLS 160917Z 01005KT 09/09 A2987 RMK A01 T00850085  RH  100%=      5-min Rain = 0
KRLS 160918Z 01006KT 09/09 A2987 RMK A01 T00850085  RH  100%=      5-min Rain = 0
KRLS 160919Z 01005KT 09/09 A2987 RMK A01 T00850085  RH  100%=      5-min Rain = 0
KRLS 160920Z 01006KT 09/09 A2987 RMK A01 T00860086  RH  100%=      5-min Rain = 0
KRLS 160921Z 01006KT 09/09 A2987 RMK A01 T00860086  RH  100%=      5-min Rain = 0
KRLS 160922Z 01006KT 09/09 A2987 RMK A01 T00860086  RH  100%=      5-min Rain = 0
KRLS 160923Z 02006KT 09/09 A2987 RMK A01 T00860086  RH  100%=      5-min Rain = 0
KRLS 160924Z 01007KT 09/09 A2987 RMK A01 T00860086  RH  100%=      5-min Rain = 0
KRLS 160925Z 01007KT 09/09 A2987 RMK A01 T00860086  RH  100%=      5-min Rain = 0
KRLS 160926Z 01007KT 09/09 A2987 RMK A01 T00860086  RH  100%=      5-min Rain = 0
KRLS 160927Z 00007KT 09/09 A2988 RMK A01 T00860086  RH  100%=      5-min Rain = 0
KRLS 160928Z 01008KT 09/09 A2988 RMK A01 T00860086  RH  100%=      5-min Rain = 0
KRLS 160929Z 01009KT 09/09 A2988 RMK A01 T00860086  RH  100%=      5-min Rain = 0
KRLS 160930Z 01010KT 09/09 A2988 RMK A01 T00860086  RH  100%=      5-min Rain = 0
KRLS 160931Z 01009KT 09/09 A2988 RMK A01 T00860086  RH  100%=      5-min Rain = 0
KRLS 160932Z 00008KT 09/09 A2988 RMK A01 T00860086  RH  100%=      5-min Rain = 0
KRLS 160933Z 01008KT 09/09 A2988 RMK A01 T00860086  RH  100%=      5-min Rain = 0
KRLS 160934Z 01009KT 09/09 A2988 RMK A01 T00860086  RH  100%=      5-min Rain = 0
KRLS 160935Z 01010KT 09/09 A2988 RMK A01 T00860086  RH  100%=      5-min Rain = 0
KRLS 160936Z 00008KT 09/09 A2988 RMK A01 T00860086  RH  100%=      5-min Rain = 0
KRLS 160937Z 36008KT 09/09 A2988 RMK A01 T00860086  RH  100%=      5-min Rain = 0
KRLS 160938Z 36008KT 09/09 A2988 RMK A01 T00860086  RH  100%=      5-min Rain = 0
KRLS 160939Z 00008KT 09/09 A2988 RMK A01 T00860086  RH  100%=      5-min Rain = 0
KRLS 160940Z 00008KT 09/09 A2988 RMK A01 T00860086  RH  100%=      5-min Rain = 0
KRLS 160941Z 00008KT 09/09 A2988 RMK A01 T00860086  RH  100%=      5-min Rain = 0
KRLS 160942Z 00008KT 09/09 A2988 RMK A01 T00860086  RH  100%=      5-min Rain = 0
KRLS 160943Z 01010KT 09/09 A2988 RMK A01 T00860086  RH  100%=      5-min Rain = 0
KRLS 160944Z 01010KT 09/09 A2988 RMK A01 T00860085  RH  100%=      5-min Rain = 0
KRLS 160945Z 00009KT 09/09 A2988 RMK A01 T00850085  RH  100%=      5-min Rain = 0
KRLS 160946Z 00009KT 09/09 A2988 RMK A01 T00850085  RH  100%=      5-min Rain = 0
KRLS 160947Z 36010KT 09/09 A2988 RMK A01 T00850085  RH  100%=      5-min Rain = 0
KRLS 160948Z 36010KT 09/09 A2988 RMK A01 T00850085  RH  100%=      5-min Rain = 0
KRLS 160949Z 36010KT 08/08 A2988 RMK A01 T00840084  RH  100%=      5-min Rain = 0
KRLS 160950Z 36010KT 08/08 A2988 RMK A01 T00840084  RH  100%=      5-min Rain = 0
KRLS 160951Z 36010KT 08/08 A2988 RMK A01 T00840084  RH  100%=      5-min Rain = 0
KRLS 160952Z 36009KT 08/08 A2988 RMK A01 T00840084  RH  100%=      5-min Rain = 0
KRLS 160953Z 00010KT 08/08 A2988 RMK A01 T00840084  RH  100%=      5-min Rain = 0
KRLS 160954Z 01010KT 08/08 A2988 RMK A01 T00840084  RH  100%=      5-min Rain = 0
KRLS 160955Z 01010KT 08/08 A2988 RMK A01 T00830083  RH  100%=      5-min Rain = 0
KRLS 160956Z 01010KT 08/08 A2988 RMK A01 T00830083  RH  100%=      5-min Rain = 0
KRLS 160957Z 01008KT 08/08 A2988 RMK A01 T00830083  RH  100%=      5-min Rain = 0
KRLS 160958Z 01010KT 08/08 A2988 RMK A01 T00830083  RH  100%=      5-min Rain = 0
KRLS 160959Z 01010KT 08/08 A2988 RMK A01 T00830083  RH  100%=      5-min Rain = 0
KRLS 161000Z 00008KT 08/08 A2988 RMK A01 T00830083  RH  100%=      5-min Rain = 0
KRLS 161001Z 01009KT 08/08 A2988 RMK A01 T00830083  RH  100%=      5-min Rain = 0
KRLS 161002Z 00009KT 08/08 A2988 RMK A01 T00830083  RH  100%=      5-min Rain = 0
KRLS 161003Z 01008KT 08/08 A2988 RMK A01 T00830083  RH  100%=      5-min Rain = 0
KRLS 161004Z 00007KT 08/08 A2988 RMK A01 T00830083  RH  100%=      5-min Rain = 0
KRLS 161005Z 36008KT 08/08 A2988 RMK A01 T00840084  RH  100%=      5-min Rain = 0
KRLS 161006Z 01011KT 08/08 A2988 RMK A01 T00840084  RH  100%=      5-min Rain = 0
KRLS 161007Z 01012KT 08/08 A2988 RMK A01 T00830082  RH  100%=      5-min Rain = 0
KRLS 161008Z 01012KT 08/08 A2988 RMK A01 T00820081  RH  099%=      5-min Rain = 0
KRLS 161009Z 00010KT 08/08 A2988 RMK A01 T00810080  RH  099%=      5-min Rain = 0
KRLS 161010Z 01011KT 08/08 A2988 RMK A01 T00810080  RH  099%=      5-min Rain = 0
KRLS 161011Z 01009KT 08/08 A2988 RMK A01 T00810080  RH  099%=      5-min Rain = 0
KRLS 161012Z 01010KT 08/08 A2988 RMK A01 T00810080  RH  100%=      5-min Rain = 0
KRLS 161013Z 01011KT 08/08 A2988 RMK A01 T00800079  RH  099%=      5-min Rain = 0
KRLS 161014Z 01011KT 08/08 A2988 RMK A01 T00790079  RH  099%=      5-min Rain = 0
KRLS 161015Z 01012KT 08/08 A2988 RMK A01 T00790078  RH  099%=      5-min Rain = 0
KRLS 161016Z 01011KT 08/08 A2988 RMK A01 T00790078  RH  099%=      5-min Rain = 0
KRLS 161017Z 01010KT 08/08 A2988 RMK A01 T00790078  RH  099%=      5-min Rain = 0
KRLS 161018Z 01010KT 08/08 A2988 RMK A01 T00790078  RH  099%=      5-min Rain = 0
KRLS 161019Z 01009KT 08/08 A2988 RMK A01 T00790078  RH  099%=      5-min Rain = 0
KRLS 161020Z 01009KT 08/08 A2988 RMK A01 T00790078  RH  099%=      5-min Rain = 0
KRLS 161021Z 01008KT 08/08 A2988 RMK A01 T00790078  RH  099%=      5-min Rain = 0
KRLS 161022Z 01009KT 08/08 A2988 RMK A01 T00790078  RH  099%=      5-min Rain = 0
KRLS 161023Z 01008KT 08/08 A2988 RMK A01 T00790078  RH  099%=      5-min Rain = 0
KRLS 161024Z 01007KT 08/08 A2988 RMK A01 T00790078  RH  099%=      5-min Rain = 0
KRLS 161025Z 02009KT 08/08 A2988 RMK A01 T00790079  RH  100%=      5-min Rain = 0
KRLS 161026Z 01009KT 08/08 A2988 RMK A01 T00790079  RH  099%=      5-min Rain = 0
KRLS 161027Z 02008KT 08/08 A2988 RMK A01 T00790078  RH  099%=      5-min Rain = 0
KRLS 161028Z 02009KT 08/08 A2988 RMK A01 T00790078  RH  099%=      5-min Rain = 0
KRLS 161029Z 01009KT 08/08 A2988 RMK A01 T00790078  RH  099%=      5-min Rain = 0
KRLS 161030Z 01009KT 08/08 A2988 RMK A01 T00790078  RH  099%=      5-min Rain = 0
KRLS 161031Z 01009KT 08/08 A2988 RMK A01 T00790078  RH  099%=      5-min Rain = 0
KRLS 161032Z 01008KT 08/08 A2988 RMK A01 T00790078  RH  099%=      5-min Rain = 0
KRLS 161033Z 01009KT 08/08 A2988 RMK A01 T00790078  RH  099%=      5-min Rain = 0
KRLS 161034Z 01010KT 08/08 A2988 RMK A01 T00780077  RH  099%=      5-min Rain = 0
KRLS 161035Z 01011KT 08/08 A2988 RMK A01 T00780077  RH  099%=      5-min Rain = 0
KRLS 161036Z 02011KT 08/08 A2988 RMK A01 T00780076  RH  099%=      5-min Rain = 0
KRLS 161037Z 01010KT 08/08 A2988 RMK A01 T00770076  RH  099%=      5-min Rain = 0
KRLS 161038Z 01010KT 08/08 A2988 RMK A01 T00770076  RH  099%=      5-min Rain = 0
KRLS 161039Z 01011KT 08/08 A2988 RMK A01 T00770076  RH  099%=      5-min Rain = 0
KRLS 161040Z 01012KT 08/08 A2988 RMK A01 T00770076  RH  099%=      5-min Rain = 0
KRLS 161041Z 01011KT 08/08 A2988 RMK A01 T00770076  RH  099%=      5-min Rain = 0
KRLS 161042Z 01011KT 08/08 A2988 RMK A01 T00770076  RH  099%=      5-min Rain = 0
KRLS 161043Z 01011KT 08/08 A2988 RMK A01 T00770076  RH  099%=      5-min Rain = 0
KRLS 161044Z 01012KT 08/08 A2988 RMK A01 T00770076  RH  099%=      5-min Rain = 0
KRLS 161045Z 01012KT 08/08 A2988 RMK A01 T00770075  RH  099%=      5-min Rain = 0
KRLS 161046Z 01012KT 08/08 A2988 RMK A01 T00770075  RH  099%=      5-min Rain = 0
KRLS 161047Z 01011KT 08/08 A2988 RMK A01 T00770075  RH  099%=      5-min Rain = 0
KRLS 161048Z 01012KT 08/08 A2988 RMK A01 T00770075  RH  099%=      5-min Rain = 0
KRLS 161049Z 01012KT 08/08 A2988 RMK A01 T00770075  RH  099%=      5-min Rain = 0
KRLS 161050Z 01011KT 08/08 A2988 RMK A01 T00770075  RH  099%=      5-min Rain = 0
KRLS 161051Z 00009KT 08/08 A2988 RMK A01 T00770075  RH  099%=      5-min Rain = 0
KRLS 161052Z 01010KT 08/08 A2988 RMK A01 T00770075  RH  099%=      5-min Rain = 0
KRLS 161053Z 01011KT 08/08 A2988 RMK A01 T00770075  RH  099%=      5-min Rain = 0
KRLS 161054Z 01012KT 08/08 A2988 RMK A01 T00770075  RH  099%=      5-min Rain = 0
KRLS 161055Z 01012KT 08/07 A2988 RMK A01 T00760074  RH  099%=      5-min Rain = 0
KRLS 161056Z 01010KT 08/07 A2988 RMK A01 T00760074  RH  099%=      5-min Rain = 0
KRLS 161057Z 01011KT 08/07 A2988 RMK A01 T00760074  RH  099%=      5-min Rain = 0
KRLS 161058Z 01011KT 08/07 A2988 RMK A01 T00760074  RH  099%=      5-min Rain = 0
KRLS 161059Z 01011KT 08/07 A2988 RMK A01 T00760074  RH  099%=      5-min Rain = 0
KRLS 161100Z 01011KT 08/07 A2988 RMK A01 T00760074  RH  099%=      5-min Rain = 0
KRLS 161101Z 01011KT 08/07 A2988 RMK A01 T00760074  RH  099%=      5-min Rain = 0
KRLS 161102Z 01010KT 08/07 A2988 RMK A01 T00760074  RH  099%=      5-min Rain = 0
KRLS 161103Z 02010KT 08/07 A2988 RMK A01 T00760074  RH  099%=      5-min Rain = 0
KRLS 161104Z 01010KT 08/07 A2988 RMK A01 T00760074  RH  099%=      5-min Rain = 0
KRLS 161105Z 02010KT 08/07 A2988 RMK A01 T00760074  RH  099%=      5-min Rain = 0
KRLS 161106Z 02012KT 08/07 A2988 RMK A01 T00760074  RH  099%=      5-min Rain = 0
KRLS 161107Z 02011KT 08/07 A2988 RMK A01 T00760074  RH  099%=      5-min Rain = 0
KRLS 161108Z 02010KT 08/07 A2988 RMK A01 T00760074  RH  099%=      5-min Rain = 0
KRLS 161109Z 01011KT 08/07 A2988 RMK A01 T00760073  RH  099%=      5-min Rain = 0
KRLS 161110Z 01011KT 08/07 A2988 RMK A01 T00760073  RH  098%=      5-min Rain = 0
KRLS 161111Z 01011KT 08/07 A2988 RMK A01 T00760073  RH  098%=      5-min Rain = 0
KRLS 161112Z 02011KT 08/07 A2988 RMK A01 T00760073  RH  098%=      5-min Rain = 0
KRLS 161113Z 02010KT 08/07 A2988 RMK A01 T00760073  RH  098%=      5-min Rain = 0
KRLS 161114Z 02010KT 08/07 A2988 RMK A01 T00760073  RH  098%=      5-min Rain = 0
KRLS 161115Z 02010KT 08/07 A2988 RMK A01 T00760073  RH  098%=      5-min Rain = 0
KRLS 161116Z 02011KT 08/07 A2988 RMK A01 T00760073  RH  098%=      5-min Rain = 0
KRLS 161117Z 01011KT 08/07 A2988 RMK A01 T00760073  RH  098%=      5-min Rain = 0
KRLS 161118Z 02010KT 08/07 A2988 RMK A01 T00760073  RH  098%=      5-min Rain = 0
KRLS 161119Z 01010KT 08/07 A2988 RMK A01 T00760073  RH  098%=      5-min Rain = 0
KRLS 161120Z 01010KT 08/07 A2988 RMK A01 T00760073  RH  098%=      5-min Rain = 0
KRLS 161121Z 02011KT 08/07 A2988 RMK A01 T00760072  RH  098%=      5-min Rain = 0
KRLS 161122Z 01011KT 08/07 A2988 RMK A01 T00760072  RH  098%=      5-min Rain = 0
KRLS 161123Z 02010KT 08/07 A2988 RMK A01 T00760072  RH  098%=      5-min Rain = 0
KRLS 161124Z 02010KT 08/07 A2988 RMK A01 T00760072  RH  098%=      5-min Rain = 0
KRLS 161125Z 02010KT 08/07 A2988 RMK A01 T00760072  RH  098%=      5-min Rain = 0
KRLS 161126Z 02009KT 08/07 A2988 RMK A01 T00760072  RH  098%=      5-min Rain = 0
KRLS 161127Z 02011KT 08/07 A2988 RMK A01 T00760072  RH  098%=      5-min Rain = 0
KRLS 161128Z 02009KT 08/07 A2988 RMK A01 T00760072  RH  098%=      5-min Rain = 0
KRLS 161129Z 02010KT 08/07 A2988 RMK A01 T00760072  RH  098%=      5-min Rain = 0
KRLS 161130Z 01009KT 08/07 A2988 RMK A01 T00760072  RH  098%=      5-min Rain = 0
KRLS 161131Z 01009KT 08/07 A2988 RMK A01 T00760072  RH  098%=      5-min Rain = 0
KRLS 161132Z 01012KT 08/07 A2988 RMK A01 T00760072  RH  098%=      5-min Rain = 0
KRLS 161133Z 02012KT 08/07 A2988 RMK A01 T00750071  RH  097%=      5-min Rain = 0
KRLS 161134Z 01013KT 08/07 A2988 RMK A01 T00750071  RH  097%=      5-min Rain = 0
KRLS 161135Z 02012KT 08/07 A2988 RMK A01 T00750070  RH  097%=      5-min Rain = 0
KRLS 161136Z 01011KT 08/07 A2988 RMK A01 T00750070  RH  097%=      5-min Rain = 0
KRLS 161137Z 01012KT 08/07 A2988 RMK A01 T00750070  RH  097%=      5-min Rain = 0
KRLS 161138Z 01013KT 08/07 A2988 RMK A01 T00750070  RH  097%=      5-min Rain = 0
KRLS 161139Z 01012KT 08/07 A2988 RMK A01 T00750070  RH  097%=      5-min Rain = 0
KRLS 161140Z 01011KT 08/07 A2988 RMK A01 T00750071  RH  097%=      5-min Rain = 0
KRLS 161141Z 01012KT 08/07 A2988 RMK A01 T00750071  RH  097%=      5-min Rain = 0
KRLS 161142Z 01012KT 08/07 A2988 RMK A01 T00750071  RH  097%=      5-min Rain = 0
KRLS 161143Z 02012KT 07/07 A2988 RMK A01 T00740070  RH  097%=      5-min Rain = 0
KRLS 161144Z 01012KT 07/07 A2988 RMK A01 T00740070  RH  097%=      5-min Rain = 0
KRLS 161145Z 01010KT 07/07 A2988 RMK A01 T00740070  RH  097%=      5-min Rain = 0
KRLS 161146Z 01010KT 07/07 A2988 RMK A01 T00740070  RH  097%=      5-min Rain = 0
KRLS 161147Z 01012KT 07/07 A2988 RMK A01 T00740070  RH  097%=      5-min Rain = 0
KRLS 161148Z 01011KT 07/07 A2988 RMK A01 T00730070  RH  098%=      5-min Rain = 0
KRLS 161149Z 01010KT 07/07 A2988 RMK A01 T00730069  RH  098%=      5-min Rain = 0
KRLS 161150Z 02010KT 07/07 A2988 RMK A01 T00730070  RH  098%=      5-min Rain = 0
KRLS 161151Z 01011KT 07/07 A2988 RMK A01 T00730070  RH  098%=      5-min Rain = 0
KRLS 161152Z 02011KT 07/07 A2988 RMK A01 T00720069  RH  098%=      5-min Rain = 0
KRLS 161153Z 02012KT 07/07 A2987 RMK A01 T00720069  RH  098%=      5-min Rain = 0
KRLS 161154Z 02013KT 07/07 A2987 RMK A01 T00720069  RH  098%=      5-min Rain = 0
KRLS 161155Z 02013KT 07/07 A2987 RMK A01 T00720069  RH  098%=      5-min Rain = 0
KRLS 161156Z 02011KT 07/07 A2987 RMK A01 T00720069  RH  098%=      5-min Rain = 0
KRLS 161157Z 02010KT 07/07 A2987 RMK A01 T00720069  RH  098%=      5-min Rain = 0
KRLS 161158Z 02010KT 07/07 A2987 RMK A01 T00720069  RH  098%=      5-min Rain = 0
KRLS 161159Z 02011KT 07/07 A2987 RMK A01 T00720069  RH  098%=      5-min Rain = 0
KRLS 161200Z 01011KT 07/07 A2988 RMK A01 T00720069  RH  098%=      5-min Rain = 0
KRLS 161201Z 01010KT 07/07 A2988 RMK A01 T00710069  RH  098%=      5-min Rain = 0
KRLS 161202Z 02011KT 07/07 A2987 RMK A01 T00710068  RH  098%=      5-min Rain = 0
KRLS 161203Z 02010KT 07/07 A2987 RMK A01 T00710068  RH  098%=      5-min Rain = 0
KRLS 161204Z 02010KT 07/07 A2988 RMK A01 T00710068  RH  098%=      5-min Rain = 0
KRLS 161205Z 02009KT 07/07 A2988 RMK A01 T00710068  RH  098%=      5-min Rain = 0
KRLS 161206Z 03010KT 07/07 A2987 RMK A01 T00710068  RH  098%=      5-min Rain = 0
KRLS 161207Z 03011KT 07/07 A2987 RMK A01 T00710068  RH  098%=      5-min Rain = 0
KRLS 161208Z 02012KT 07/07 A2987 RMK A01 T00710067  RH  098%=      5-min Rain = 0
KRLS 161209Z 02010KT 07/07 A2988 RMK A01 T00700066  RH  097%=      5-min Rain = 0
KRLS 161210Z 02011KT 07/07 A2988 RMK A01 T00700066  RH  097%=      5-min Rain = 0
KRLS 161211Z 02011KT 07/07 A2988 RMK A01 T00700066  RH  097%=      5-min Rain = 0
KRLS 161212Z 02012KT 07/07 A2987 RMK A01 T00700066  RH  097%=      5-min Rain = 0
KRLS 161213Z 03011KT 07/07 A2987 RMK A01 T00700065  RH  097%=      5-min Rain = 0
KRLS 161214Z 02009KT 07/07 A2987 RMK A01 T00700065  RH  097%=      5-min Rain = 0
KRLS 161215Z 02009KT 07/07 A2987 RMK A01 T00700065  RH  097%=      5-min Rain = 0
KRLS 161216Z 03008KT 07/07 A2987 RMK A01 T00700065  RH  097%=      5-min Rain = 0
KRLS 161217Z 03008KT 07/07 A2987 RMK A01 T00700065  RH  097%=      5-min Rain = 0
KRLS 161218Z 03008KT 07/07 A2987 RMK A01 T00700065  RH  097%=      5-min Rain = 0
KRLS 161219Z 04007KT 07/07 A2987 RMK A01 T00700065  RH  097%=      5-min Rain = 0
KRLS 161220Z 04008KT 07/07 A2987 RMK A01 T00700066  RH  097%=      5-min Rain = 0
KRLS 161221Z 03008KT 07/07 A2987 RMK A01 T00700066  RH  097%=      5-min Rain = 0
KRLS 161222Z 03007KT 07/07 A2987 RMK A01 T00700066  RH  097%=      5-min Rain = 0
KRLS 161223Z 03008KT 07/07 A2987 RMK A01 T00700066  RH  097%=      5-min Rain = 0
KRLS 161224Z 04009KT 07/07 A2987 RMK A01 T00690066  RH  097%=      5-min Rain = 0
KRLS 161225Z 04009KT 07/07 A2987 RMK A01 T00690065  RH  097%=      5-min Rain = 0
KRLS 161226Z 03008KT 07/07 A2987 RMK A01 T00690065  RH  097%=      5-min Rain = 0
KRLS 161227Z 03007KT 07/07 A2987 RMK A01 T00690065  RH  098%=      5-min Rain = 0
KRLS 161228Z 04006KT 07/07 A2987 RMK A01 T00690066  RH  098%=      5-min Rain = 0
KRLS 161229Z 04007KT 07/07 A2988 RMK A01 T00690066  RH  098%=      5-min Rain = 0
KRLS 161230Z 04007KT 07/07 A2988 RMK A01 T00690066  RH  098%=      5-min Rain = 0
KRLS 161231Z 03009KT 07/07 A2988 RMK A01 T00690066  RH  098%=      5-min Rain = 0
KRLS 161232Z 03008KT 07/07 A2988 RMK A01 T00690065  RH  098%=      5-min Rain = 0
KRLS 161233Z 03009KT 07/07 A2988 RMK A01 T00690065  RH  098%=      5-min Rain = 0
KRLS 161234Z 03009KT 07/07 A2988 RMK A01 T00680065  RH  097%=      5-min Rain = 0
KRLS 161235Z 03008KT 07/06 A2988 RMK A01 T00680064  RH  097%=      5-min Rain = 0
KRLS 161236Z 04007KT 07/06 A2988 RMK A01 T00680064  RH  097%=      5-min Rain = 0
KRLS 161237Z 03008KT 07/06 A2988 RMK A01 T00680064  RH  097%=      5-min Rain = 0
KRLS 161238Z 03007KT 07/07 A2988 RMK A01 T00680065  RH  097%=      5-min Rain = 0
KRLS 161239Z 04009KT 07/06 A2988 RMK A01 T00680064  RH  097%=      5-min Rain = 0
KRLS 161240Z 03009KT 07/06 A2988 RMK A01 T00680064  RH  097%=      5-min Rain = 0
KRLS 161241Z 03009KT 07/06 A2989 RMK A01 T00680064  RH  097%=      5-min Rain = 0
KRLS 161242Z 03009KT 07/06 A2989 RMK A01 T00680064  RH  097%=      5-min Rain = 0
KRLS 161243Z 02008KT 07/07 A2989 RMK A01 T00680065  RH  098%=      5-min Rain = 0
KRLS 161244Z 02009KT 07/07 A2989 RMK A01 T00680065  RH  098%=      5-min Rain = 0
KRLS 161245Z 03009KT 07/07 A2989 RMK A01 T00680065  RH  098%=      5-min Rain = 0
KRLS 161246Z 03008KT 07/07 A2989 RMK A01 T00680065  RH  098%=      5-min Rain = 0
KRLS 161247Z 03007KT 07/07 A2988 RMK A01 T00680065  RH  098%=      5-min Rain = 0
KRLS 161248Z 03007KT 07/07 A2988 RMK A01 T00680065  RH  098%=      5-min Rain = 0
KRLS 161249Z 03007KT 07/07 A2989 RMK A01 T00680065  RH  098%=      5-min Rain = 0
KRLS 161250Z 02007KT 07/07 A2989 RMK A01 T00690066  RH  098%=      5-min Rain = 0
KRLS 161251Z 02009KT 07/07 A2989 RMK A01 T00690066  RH  098%=      5-min Rain = 0
KRLS 161252Z 02008KT 07/07 A2989 RMK A01 T00690066  RH  098%=      5-min Rain = 0
KRLS 161253Z 02010KT 07/07 A2989 RMK A01 T00690066  RH  098%=      5-min Rain = 0
KRLS 161254Z 03010KT 07/07 A2989 RMK A01 T00690066  RH  098%=      5-min Rain = 0
KRLS 161255Z 03009KT 07/07 A2989 RMK A01 T00680065  RH  098%=      5-min Rain = 0
KRLS 161256Z 02009KT 07/07 A2989 RMK A01 T00680066  RH  098%=      5-min Rain = 0
KRLS 161257Z 02009KT 07/07 A2989 RMK A01 T00680066  RH  098%=      5-min Rain = 0
KRLS 161258Z 02009KT 07/07 A2989 RMK A01 T00680066  RH  098%=      5-min Rain = 0
KRLS 161259Z 02009KT 07/07 A2989 RMK A01 T00680066  RH  098%=      5-min Rain = 0
KRLS 161300Z 02009KT 07/07 A2989 RMK A01 T00680065  RH  098%=      5-min Rain = 0
KRLS 161301Z 02008KT 07/07 A299 RMK A01 T00680065  RH  098%=      5-min Rain = 0
KRLS 161302Z 01008KT 07/07 A299 RMK A01 T00680065  RH  098%=      5-min Rain = 0
KRLS 161303Z 01009KT 07/06 A299 RMK A01 T00680064  RH  098%=      5-min Rain = 0
KRLS 161304Z 01009KT 07/06 A299 RMK A01 T00670064  RH  098%=      5-min Rain = 0
KRLS 161305Z 02009KT 07/06 A299 RMK A01 T00670064  RH  098%=      5-min Rain = 0
KRLS 161306Z 03008KT 07/06 A2989 RMK A01 T00670064  RH  098%=      5-min Rain = 0
KRLS 161307Z 03008KT 07/06 A2989 RMK A01 T00670064  RH  098%=      5-min Rain = 0
KRLS 161308Z 03009KT 07/06 A2989 RMK A01 T00670064  RH  098%=      5-min Rain = 0
KRLS 161309Z 03009KT 07/06 A2989 RMK A01 T00670064  RH  098%=      5-min Rain = 0
KRLS 161310Z 03009KT 07/06 A2989 RMK A01 T00670064  RH  098%=      5-min Rain = 0
KRLS 161311Z 02008KT 07/06 A299 RMK A01 T00670064  RH  098%=      5-min Rain = 0
KRLS 161312Z 03008KT 07/06 A299 RMK A01 T00670064  RH  098%=      5-min Rain = 0
KRLS 161313Z 03007KT 07/07 A299 RMK A01 T00670065  RH  098%=      5-min Rain = 0
KRLS 161314Z 03006KT 07/07 A299 RMK A01 T00680065  RH  098%=      5-min Rain = 0
KRLS 161315Z 04007KT 07/07 A299 RMK A01 T00680066  RH  099%=      5-min Rain = 0
KRLS 161316Z 04006KT 07/07 A299 RMK A01 T00680066  RH  098%=      5-min Rain = 0
KRLS 161317Z 03005KT 07/07 A299 RMK A01 T00680066  RH  098%=      5-min Rain = 0
KRLS 161318Z 04005KT 07/07 A299 RMK A01 T00680066  RH  099%=      5-min Rain = 0
KRLS 161319Z 04006KT 07/07 A299 RMK A01 T00690067  RH  099%=      5-min Rain = 0
KRLS 161320Z 05005KT 07/07 A299 RMK A01 T00680066  RH  098%=      5-min Rain = 0
KRLS 161321Z 04006KT 07/07 A299 RMK A01 T00680066  RH  099%=      5-min Rain = 0
KRLS 161322Z 04005KT 07/07 A299 RMK A01 T00680066  RH  099%=      5-min Rain = 0
KRLS 161323Z 04004KT 07/07 A299 RMK A01 T00680067  RH  099%=      5-min Rain = 0
KRLS 161324Z 03005KT 07/07 A299 RMK A01 T00690067  RH  099%=      5-min Rain = 0
KRLS 161325Z 02004KT 07/07 A299 RMK A01 T00680066  RH  099%=      5-min Rain = 0
KRLS 161326Z 01004KT 07/07 A299 RMK A01 T00680067  RH  099%=      5-min Rain = 0
KRLS 161327Z 00004KT 07/07 A299 RMK A01 T00680066  RH  099%=      5-min Rain = 0
KRLS 161328Z 01005KT 07/07 A299 RMK A01 T00680066  RH  099%=      5-min Rain = 0
KRLS 161329Z 00004KT 07/07 A299 RMK A01 T00680067  RH  099%=      5-min Rain = 0
KRLS 161330Z 36005KT 07/07 A299 RMK A01 T00690067  RH  099%=      5-min Rain = 0
KRLS 161331Z 00005KT 07/07 A299 RMK A01 T00690067  RH  099%=      5-min Rain = 0
KRLS 161332Z 01005KT 07/07 A299 RMK A01 T00690067  RH  099%=      5-min Rain = 0
KRLS 161333Z 02004KT 07/07 A299 RMK A01 T00680066  RH  099%=      5-min Rain = 0
KRLS 161334Z 03004KT 07/07 A299 RMK A01 T00680066  RH  099%=      5-min Rain = 0
KRLS 161335Z 04004KT 07/07 A299 RMK A01 T00680067  RH  099%=      5-min Rain = 0
KRLS 161336Z 03004KT 07/07 A299 RMK A01 T00690067  RH  099%=      5-min Rain = 0
KRLS 161337Z 01004KT 07/07 A299 RMK A01 T00690067  RH  099%=      5-min Rain = 0
KRLS 161338Z 00004KT 07/07 A299 RMK A01 T00690068  RH  099%=      5-min Rain = 0
KRLS 161339Z 36005KT 07/07 A299 RMK A01 T00690068  RH  099%=      5-min Rain = 0
KRLS 161340Z 01004KT 07/07 A299 RMK A01 T00690068  RH  099%=      5-min Rain = 0
KRLS 161341Z 00004KT 07/07 A299 RMK A01 T00690067  RH  099%=      5-min Rain = 0
KRLS 161342Z 36006KT 07/07 A299 RMK A01 T00690067  RH  099%=      5-min Rain = 0
KRLS 161343Z 36005KT 07/07 A299 RMK A01 T00680066  RH  099%=      5-min Rain = 0
KRLS 161344Z 00005KT 07/07 A299 RMK A01 T00670065  RH  099%=      5-min Rain = 0
KRLS 161345Z 01004KT 07/07 A299 RMK A01 T00670065  RH  099%=      5-min Rain = 0
KRLS 161346Z 01004KT 07/07 A299 RMK A01 T00670065  RH  099%=      5-min Rain = 0
KRLS 161347Z 36004KT 07/07 A299 RMK A01 T00670066  RH  099%=      5-min Rain = 0
KRLS 161348Z 36004KT 07/07 A299 RMK A01 T00680066  RH  099%=      5-min Rain = 0
KRLS 161349Z 01004KT 07/07 A299 RMK A01 T00670066  RH  099%=      5-min Rain = 0
KRLS 161350Z 01004KT 07/07 A299 RMK A01 T00680066  RH  099%=      5-min Rain = 0
KRLS 161351Z 01004KT 07/07 A299 RMK A01 T00680067  RH  099%=      5-min Rain = 0
KRLS 161352Z 35003KT 07/07 A299 RMK A01 T00690068  RH  099%=      5-min Rain = 0
KRLS 161353Z 02004KT 07/07 A299 RMK A01 T00700068  RH  099%=      5-min Rain = 0
KRLS 161354Z 02003KT 07/07 A299 RMK A01 T00700069  RH  099%=      5-min Rain = 0
KRLS 161355Z 35004KT 07/07 A299 RMK A01 T00700068  RH  099%=      5-min Rain = 0
KRLS 161356Z 35005KT 07/07 A299 RMK A01 T00710069  RH  099%=      5-min Rain = 0
KRLS 161357Z 35004KT 07/07 A299 RMK A01 T00710070  RH  099%=      5-min Rain = 0
KRLS 161358Z 35004KT 07/07 A299 RMK A01 T00710070  RH  099%=      5-min Rain = 0
KRLS 161359Z 35004KT 07/07 A299 RMK A01 T00700068  RH  099%=      5-min Rain = 0
KRLS 161400Z 01004KT 07/07 A299 RMK A01 T00690068  RH  099%=      5-min Rain = 0
KRLS 161401Z 01004KT 07/07 A299 RMK A01 T00700068  RH  099%=      5-min Rain = 0
KRLS 161402Z 01003KT 07/07 A2991 RMK A01 T00700069  RH  099%=      5-min Rain = 0
KRLS 161403Z 01004KT 07/07 A2991 RMK A01 T00700068  RH  099%=      5-min Rain = 0
KRLS 161404Z 01003KT 07/07 A2991 RMK A01 T00700068  RH  099%=      5-min Rain = 0
KRLS 161405Z 01003KT 07/07 A2991 RMK A01 T00700068  RH  099%=      5-min Rain = 0
KRLS 161406Z 01003KT 07/07 A2991 RMK A01 T00700069  RH  099%=      5-min Rain = 0
KRLS 161407Z 01003KT 07/07 A299 RMK A01 T00700068  RH  099%=      5-min Rain = 0
KRLS 161408Z 36003KT 07/07 A299 RMK A01 T00700068  RH  099%=      5-min Rain = 0
KRLS 161409Z 34003KT 07/07 A2991 RMK A01 T00700069  RH  099%=      5-min Rain = 0
KRLS 161410Z 36003KT 07/07 A2991 RMK A01 T00710070  RH  099%=      5-min Rain = 0
KRLS 161411Z 34004KT 07/07 A2991 RMK A01 T00710070  RH  099%=      5-min Rain = 0
KRLS 161412Z 35004KT 07/07 A2991 RMK A01 T00720070  RH  099%=      5-min Rain = 0
KRLS 161413Z 36003KT 07/07 A2991 RMK A01 T00720071  RH  099%=      5-min Rain = 0
KRLS 161414Z 35003KT 07/07 A2991 RMK A01 T00720071  RH  099%=      5-min Rain = 0
KRLS 161415Z 35005KT 07/07 A2991 RMK A01 T00720071  RH  099%=      5-min Rain = 0
KRLS 161416Z 35005KT 07/07 A2991 RMK A01 T00720071  RH  099%=      5-min Rain = 0
KRLS 161417Z 35005KT 07/07 A2991 RMK A01 T00720071  RH  099%=      5-min Rain = 0
KRLS 161418Z 36005KT 07/07 A2991 RMK A01 T00720070  RH  099%=      5-min Rain = 0
KRLS 161419Z 00006KT 07/07 A2991 RMK A01 T00710070  RH  099%=      5-min Rain = 0
KRLS 161420Z 01008KT 07/07 A2991 RMK A01 T00720071  RH  099%=      5-min Rain = 0
KRLS 161421Z 01008KT 07/07 A2991 RMK A01 T00730072  RH  099%=      5-min Rain = 0
KRLS 161422Z 01008KT 07/07 A2991 RMK A01 T00730072  RH  099%=      5-min Rain = 0
KRLS 161423Z 00008KT 07/07 A2991 RMK A01 T00740073  RH  099%=      5-min Rain = 0
KRLS 161424Z 36006KT 07/07 A2991 RMK A01 T00740073  RH  099%=      5-min Rain = 0
KRLS 161425Z 36007KT 07/07 A2991 RMK A01 T00740073  RH  099%=      5-min Rain = 0
KRLS 161426Z 35007KT 07/07 A2991 RMK A01 T00740073  RH  099%=      5-min Rain = 0
KRLS 161427Z 36007KT 07/07 A2992 RMK A01 T00730072  RH  099%=      5-min Rain = 0
KRLS 161428Z 34008KT 07/07 A2992 RMK A01 T00740073  RH  099%=      5-min Rain = 0
KRLS 161429Z 35007KT 07/07 A2992 RMK A01 T00740073  RH  099%=      5-min Rain = 0
KRLS 161430Z 35007KT 08/07 A2992 RMK A01 T00750074  RH  099%=      5-min Rain = 0
KRLS 161431Z 01008KT 08/08 A2992 RMK A01 T00760075  RH  099%=      5-min Rain = 0
KRLS 161432Z 01008KT 08/07 A2992 RMK A01 T00750074  RH  099%=      5-min Rain = 0
KRLS 161433Z 00008KT 08/07 A2992 RMK A01 T00750073  RH  099%=      5-min Rain = 0
KRLS 161434Z 35008KT 07/07 A2992 RMK A01 T00740072  RH  099%=      5-min Rain = 0
KRLS 161435Z 35005KT 07/07 A2992 RMK A01 T00730072  RH  099%=      5-min Rain = 0
KRLS 161436Z 00007KT 07/07 A2992 RMK A01 T00740073  RH  099%=      5-min Rain = 0
KRLS 161437Z 36008KT 08/07 A2992 RMK A01 T00750074  RH  099%=      5-min Rain = 0
KRLS 161438Z 00009KT 08/07 A2992 RMK A01 T00750074  RH  099%=      5-min Rain = 0
KRLS 161439Z 36009KT 08/07 A2993 RMK A01 T00750074  RH  099%=      5-min Rain = 0
KRLS 161440Z 36008KT 07/07 A2993 RMK A01 T00740073  RH  099%=      5-min Rain = 0
KRLS 161441Z 35008KT 07/07 A2993 RMK A01 T00740073  RH  099%=      5-min Rain = 0
KRLS 161442Z 35007KT 07/07 A2993 RMK A01 T00740073  RH  099%=      5-min Rain = 0
KRLS 161443Z 35009KT 08/08 A2993 RMK A01 T00770076  RH  100%=      5-min Rain = 0
KRLS 161444Z 35009KT 08/08 A2993 RMK A01 T00760075  RH  099%=      5-min Rain = 0
KRLS 161445Z 35009KT 08/07 A2993 RMK A01 T00750073  RH  099%=      5-min Rain = 0
KRLS 161446Z 35010KT 08/07 A2993 RMK A01 T00750074  RH  099%=      5-min Rain = 0
KRLS 161447Z 35011KT 08/07 A2993 RMK A01 T00750074  RH  099%=      5-min Rain = 0
KRLS 161448Z 35009KT 07/07 A2993 RMK A01 T00740073  RH  099%=      5-min Rain = 0
KRLS 161449Z 36009KT 07/07 A2993 RMK A01 T00740073  RH  099%=      5-min Rain = 0
KRLS 161450Z 35011KT 07/07 A2993 RMK A01 T00740073  RH  099%=      5-min Rain = 0
KRLS 161451Z 36009KT 07/07 A2993 RMK A01 T00740073  RH  099%=      5-min Rain = 0
KRLS 161452Z 36010KT 07/07 A2993 RMK A01 T00740073  RH  099%=      5-min Rain = 0
KRLS 161453Z 36009KT 08/07 A2993 RMK A01 T00750073  RH  099%=      5-min Rain = 0
KRLS 161454Z 36010KT 08/07 A2993 RMK A01 T00750074  RH  099%=      5-min Rain = 0
KRLS 161455Z 35010KT 08/07 A2993 RMK A01 T00750073  RH  099%=      5-min Rain = 0
KRLS 161456Z 35010KT 08/07 A2993 RMK A01 T00750074  RH  099%=      5-min Rain = 0
KRLS 161457Z 34010KT 08/07 A2993 RMK A01 T00750074  RH  099%=      5-min Rain = 0
KRLS 161458Z 34010KT 08/07 A2993 RMK A01 T00750074  RH  099%=      5-min Rain = 0
KRLS 161459Z 34011KT 08/07 A2993 RMK A01 T00750074  RH  099%=      5-min Rain = 0
KRLS 161500Z 34011KT 08/07 A2993 RMK A01 T00750074  RH  099%=      5-min Rain = 0
KRLS 161501Z 34010KT 08/07 A2993 RMK A01 T00750074  RH  099%=      5-min Rain = 0
KRLS 161502Z 34010KT 08/07 A2993 RMK A01 T00750074  RH  099%=      5-min Rain = 0
KRLS 161503Z 33011KT 08/07 A2994 RMK A01 T00750074  RH  099%=      5-min Rain = 0
KRLS 161504Z 34012KT 08/07 A2994 RMK A01 T00760074  RH  099%=      5-min Rain = 0
KRLS 161505Z 35012KT 08/07 A2994 RMK A01 T00760074  RH  099%=      5-min Rain = 0
KRLS 161506Z 35012KT 08/07 A2994 RMK A01 T00750074  RH  099%=      5-min Rain = 0
KRLS 161507Z 35010KT 08/07 A2994 RMK A01 T00750074  RH  099%=      5-min Rain = 0
KRLS 161508Z 35011KT 08/07 A2994 RMK A01 T00750074  RH  099%=      5-min Rain = 0
KRLS 161509Z 34010KT 08/07 A2994 RMK A01 T00750074  RH  099%=      5-min Rain = 0
KRLS 161510Z 33011KT 08/07 A2994 RMK A01 T00760074  RH  099%=      5-min Rain = 0
KRLS 161511Z 34011KT 08/07 A2994 RMK A01 T00760074  RH  099%=      5-min Rain = 0
KRLS 161512Z 34011KT 08/07 A2994 RMK A01 T00760074  RH  099%=      5-min Rain = 0
KRLS 161513Z 34009KT 08/07 A2994 RMK A01 T00760074  RH  099%=      5-min Rain = 0
KRLS 161514Z 34012KT 08/08 A2994 RMK A01 T00760075  RH  099%=      5-min Rain = 0
KRLS 161515Z 33011KT 08/07 A2994 RMK A01 T00760074  RH  099%=      5-min Rain = 0
KRLS 161516Z 35011KT 08/07 A2994 RMK A01 T00760074  RH  099%=      5-min Rain = 0
KRLS 161517Z 34010KT 08/07 A2994 RMK A01 T00750073  RH  099%=      5-min Rain = 0
KRLS 161518Z 34011KT 08/07 A2994 RMK A01 T00760074  RH  099%=      5-min Rain = 0
KRLS 161519Z 34010KT 08/07 A2994 RMK A01 T00760074  RH  099%=      5-min Rain = 0
KRLS 161520Z 34012G18KT 08/08 A2994 RMK A01 T00770075  RH  099%=      5-min Rain = 0
KRLS 161521Z 34014KT 08/07 A2994 RMK A01 T00760073  RH  098%=      5-min Rain = 0
KRLS 161522Z 34014KT 07/07 A2994 RMK A01 T00740071  RH  098%=      5-min Rain = 0
KRLS 161523Z 34014KT 07/07 A2994 RMK A01 T00730070  RH  098%=      5-min Rain = 0
KRLS 161524Z 34013KT 07/07 A2994 RMK A01 T00730071  RH  098%=      5-min Rain = 0
KRLS 161525Z 35012KT 07/07 A2994 RMK A01 T00730071  RH  098%=      5-min Rain = 0
KRLS 161526Z 34013KT 07/07 A2994 RMK A01 T00740072  RH  098%=      5-min Rain = 0
KRLS 161527Z 34014KT 07/07 A2994 RMK A01 T00740071  RH  098%=      5-min Rain = 0
KRLS 161528Z 34013KT 07/07 A2994 RMK A01 T00730070  RH  098%=      5-min Rain = 0
KRLS 161529Z 34012KT 07/07 A2994 RMK A01 T00730070  RH  098%=      5-min Rain = 0
KRLS 161530Z 34012G17KT 07/07 A2994 RMK A01 T00740072  RH  098%=      5-min Rain = 0
KRLS 161531Z 35013KT 07/07 A2994 RMK A01 T00740071  RH  098%=      5-min Rain = 0
KRLS 161532Z 34011KT 07/07 A2994 RMK A01 T00740070  RH  098%=      5-min Rain = 0
KRLS 161533Z 34011KT 07/07 A2994 RMK A01 T00740071  RH  098%=      5-min Rain = 0
KRLS 161534Z 34011KT 07/07 A2994 RMK A01 T00740071  RH  098%=      5-min Rain = 0
KRLS 161535Z 34011KT 07/07 A2994 RMK A01 T00740072  RH  098%=      5-min Rain = 0
KRLS 161536Z 34012G17KT 08/07 A2994 RMK A01 T00750073  RH  098%=      5-min Rain = 0
KRLS 161537Z 33014KT 08/07 A2994 RMK A01 T00750072  RH  098%=      5-min Rain = 0
KRLS 161538Z 33015KT 07/07 A2994 RMK A01 T00740070  RH  097%=      5-min Rain = 0
KRLS 161539Z 33013KT 07/07 A2994 RMK A01 T00740070  RH  098%=      5-min Rain = 0
KRLS 161540Z 33014KT 08/07 A2994 RMK A01 T00750072  RH  098%=      5-min Rain = 0
KRLS 161541Z 33015KT 07/07 A2994 RMK A01 T00740071  RH  098%=      5-min Rain = 0
KRLS 161542Z 33013KT 07/07 A2994 RMK A01 T00740071  RH  098%=      5-min Rain = 0
KRLS 161543Z 33013KT 07/07 A2994 RMK A01 T00740071  RH  098%=      5-min Rain = 0
KRLS 161544Z 33013G18KT 07/07 A2994 RMK A01 T00740071  RH  098%=      5-min Rain = 0
KRLS 161545Z 34015KT 07/07 A2994 RMK A01 T00730070  RH  098%=      5-min Rain = 0
KRLS 161546Z 34013KT 07/07 A2994 RMK A01 T00730069  RH  098%=      5-min Rain = 0
KRLS 161547Z 34012KT 07/07 A2994 RMK A01 T00730070  RH  098%=      5-min Rain = 0
KRLS 161548Z 35013KT 07/07 A2994 RMK A01 T00740071  RH  098%=      5-min Rain = 0
KRLS 161549Z 34011KT 07/07 A2994 RMK A01 T00740070  RH  097%=      5-min Rain = 0
KRLS 161550Z 34011KT 08/07 A2994 RMK A01 T00750070  RH  097%=      5-min Rain = 0
KRLS 161551Z 34013KT 08/07 A2994 RMK A01 T00750070  RH  097%=      5-min Rain = 0
KRLS 161552Z 33013KT 08/07 A2994 RMK A01 T00750069  RH  096%=      5-min Rain = 0
KRLS 161553Z 33013KT 08/07 A2994 RMK A01 T00760069  RH  096%=      5-min Rain = 0
KRLS 161554Z 33011KT 08/07 A2994 RMK A01 T00760070  RH  096%=      5-min Rain = 0
KRLS 161555Z 34011KT 08/07 A2994 RMK A01 T00760069  RH  096%=      5-min Rain = 0
KRLS 161556Z 33010KT 08/07 A2994 RMK A01 T00760069  RH  095%=      5-min Rain = 0
KRLS 161557Z 33008KT 08/07 A2993 RMK A01 T00770071  RH  096%=      5-min Rain = 0
KRLS 161558Z 33009KT 08/07 A2993 RMK A01 T00780072  RH  096%=      5-min Rain = 0
KRLS 161559Z 33009KT 08/07 A2993 RMK A01 T00780071  RH  096%=      5-min Rain = 0
KRLS 161600Z 33008KT 08/07 A2993 RMK A01 T00780071  RH  095%=      5-min Rain = 0
KRLS 161601Z 34008KT 08/07 A2993 RMK A01 T00790073  RH  095%=      5-min Rain = 0
KRLS 161602Z 33009KT 08/07 A2993 RMK A01 T00800072  RH  095%=      5-min Rain = 0
KRLS 161603Z 35008KT 08/07 A2993 RMK A01 T00800073  RH  095%=      5-min Rain = 0
KRLS 161604Z 34007KT 08/08 A2993 RMK A01 T00820076  RH  096%=      5-min Rain = 0
KRLS 161605Z 35008KT 09/08 A2993 RMK A01 T00850078  RH  095%=      5-min Rain = 0
KRLS 161606Z 35008KT 09/08 A2993 RMK A01 T00850075  RH  094%=      5-min Rain = 0
KRLS 161607Z 35009KT 09/07 A2993 RMK A01 T00850073  RH  092%=      5-min Rain = 0
KRLS 161608Z 35009KT 09/07 A2993 RMK A01 T00850073  RH  092%=      5-min Rain = 0
KRLS 161609Z 34008KT 09/08 A2993 RMK A01 T00870075  RH  093%=      5-min Rain = 0
KRLS 161610Z 35007KT 09/08 A2994 RMK A01 T00870075  RH  092%=      5-min Rain = 0
KRLS 161611Z 35008KT 09/08 A2994 RMK A01 T00890078  RH  093%=      5-min Rain = 0
KRLS 161612Z 35010KT 09/08 A2994 RMK A01 T00900077  RH  092%=      5-min Rain = 0
KRLS 161613Z 35009KT 09/08 A2994 RMK A01 T00900076  RH  091%=      5-min Rain = 0
KRLS 161614Z 34009KT 09/08 A2994 RMK A01 T00890077  RH  092%=      5-min Rain = 0
KRLS 161615Z 34007KT 09/08 A2994 RMK A01 T00890076  RH  092%=      5-min Rain = 0
KRLS 161616Z 35007KT 09/08 A2994 RMK A01 T00910081  RH  093%=      5-min Rain = 0
KRLS 161617Z 34008KT 09/08 A2994 RMK A01 T00930083  RH  093%=      5-min Rain = 0
KRLS 161618Z 35009KT 10/08 A2994 RMK A01 T00950084  RH  093%=      5-min Rain = 0
KRLS 161619Z 34008KT 10/08 A2994 RMK A01 T00950081  RH  091%=      5-min Rain = 0
KRLS 161620Z 34007KT 10/08 A2994 RMK A01 T00950082  RH  091%=      5-min Rain = 0
KRLS 161621Z 34008KT 10/08 A2994 RMK A01 T00950082  RH  091%=      5-min Rain = 0
KRLS 161622Z 33011KT 10/08 A2994 RMK A01 T00960080  RH  090%=      5-min Rain = 0
KRLS 161623Z 34009KT 10/08 A2994 RMK A01 T00950079  RH  089%=      5-min Rain = 0
KRLS 161624Z 33009KT 10/08 A2994 RMK A01 T00950080  RH  090%=      5-min Rain = 0
KRLS 161625Z 33009KT 10/08 A2994 RMK A01 T00960081  RH  090%=      5-min Rain = 0
KRLS 161626Z 34009KT 10/08 A2994 RMK A01 T00970082  RH  090%=      5-min Rain = 0
KRLS 161627Z 33009KT 10/09 A2994 RMK A01 T01000088  RH  092%=      5-min Rain = 0
KRLS 161628Z 32011KT 10/08 A2994 RMK A01 T01010084  RH  089%=      5-min Rain = 0
KRLS 161629Z 32010KT 10/08 A2994 RMK A01 T01000080  RH  088%=      5-min Rain = 0
KRLS 161630Z 33010KT 10/08 A2994 RMK A01 T01000084  RH  090%=      5-min Rain = 0
KRLS 161631Z 33007KT 10/09 A2994 RMK A01 T01020087  RH  090%=      5-min Rain = 0
KRLS 161632Z 34009KT 10/09 A2994 RMK A01 T01040087  RH  089%=      5-min Rain = 0
KRLS 161633Z 34009KT 11/09 A2994 RMK A01 T01050086  RH  088%=      5-min Rain = 0
KRLS 161634Z 35010KT 11/09 A2994 RMK A01 T01070087  RH  087%=      5-min Rain = 0
KRLS 161635Z 35010KT 11/08 A2994 RMK A01 T01070083  RH  085%=      5-min Rain = 0
KRLS 161636Z 34011KT 11/08 A2994 RMK A01 T01060083  RH  086%=      5-min Rain = 0
KRLS 161637Z 34010KT 11/08 A2994 RMK A01 T01060082  RH  085%=      5-min Rain = 0
KRLS 161638Z 34011KT 11/09 A2994 RMK A01 T01060086  RH  087%=      5-min Rain = 0
KRLS 161639Z 33012KT 11/08 A2994 RMK A01 T01070084  RH  085%=      5-min Rain = 0
KRLS 161640Z 32010KT 11/08 A2994 RMK A01 T01070083  RH  085%=      5-min Rain = 0
KRLS 161641Z 34010KT 11/09 A2994 RMK A01 T01070086  RH  087%=      5-min Rain = 0
KRLS 161642Z 33009KT 11/09 A2994 RMK A01 T01090087  RH  086%=      5-min Rain = 0
KRLS 161643Z 35008KT 11/09 A2994 RMK A01 T01100089  RH  087%=      5-min Rain = 0
KRLS 161644Z 34010KT 11/09 A2994 RMK A01 T01130089  RH  086%=      5-min Rain = 0
KRLS 161645Z 32010KT 12/09 A2994 RMK A01 T01150092  RH  086%=      5-min Rain = 0
KRLS 161646Z 32009KT 12/09 A2994 RMK A01 T01150091  RH  085%=      5-min Rain = 0
KRLS 161647Z 33010KT 12/09 A2994 RMK A01 T01150091  RH  085%=      5-min Rain = 0
KRLS 161648Z 34009KT 11/08 A2994 RMK A01 T01140084  RH  082%=      5-min Rain = 0
KRLS 161649Z 33009KT 11/09 A2994 RMK A01 T01130090  RH  086%=      5-min Rain = 0
KRLS 161650Z 33010KT 12/09 A2994 RMK A01 T01150091  RH  086%=      5-min Rain = 0
KRLS 161651Z 34011KT 12/09 A2994 RMK A01 T01150088  RH  083%=      5-min Rain = 0
KRLS 161652Z 33010KT 11/09 A2994 RMK A01 T01140087  RH  083%=      5-min Rain = 0
KRLS 161653Z 33010KT 11/09 A2994 RMK A01 T01130086  RH  083%=      5-min Rain = 0
KRLS 161654Z 34011KT 11/09 A2994 RMK A01 T01130088  RH  085%=      5-min Rain = 0
KRLS 161655Z 34010KT 11/09 A2994 RMK A01 T01140086  RH  083%=      5-min Rain = 0
KRLS 161656Z 34009KT 11/09 A2995 RMK A01 T01140089  RH  085%=      5-min Rain = 0
KRLS 161657Z 35012KT 12/09 A2994 RMK A01 T01170093  RH  085%=      5-min Rain = 0
KRLS 161658Z 36013KT 12/09 A2994 RMK A01 T01180088  RH  082%=      5-min Rain = 0
KRLS 161659Z 35011KT 12/09 A2994 RMK A01 T01170088  RH  082%=      5-min Rain = 0
KRLS 161700Z 35009KT 12/09 A2994 RMK A01 T01170088  RH  083%=      5-min Rain = 0
KRLS 161701Z 35010KT 12/09 A2994 RMK A01 T01170090  RH  084%=      5-min Rain = 0
KRLS 161702Z 35011KT 12/09 A2994 RMK A01 T01170089  RH  083%=      5-min Rain = 0
KRLS 161703Z 34010KT 12/09 A2994 RMK A01 T01160089  RH  083%=      5-min Rain = 0
KRLS 161704Z 34010KT 12/09 A2994 RMK A01 T01160088  RH  083%=      5-min Rain = 0
KRLS 161705Z 34011KT 12/09 A2994 RMK A01 T01160088  RH  083%=      5-min Rain = 0
KRLS 161706Z 34010G15KT 12/09 A2994 RMK A01 T01160090  RH  084%=      5-min Rain = 0
KRLS 161707Z 36013KT 12/09 A2994 RMK A01 T01190092  RH  083%=      5-min Rain = 0
KRLS 161708Z 36012G17KT 12/09 A2994 RMK A01 T01220089  RH  080%=      5-min Rain = 0
KRLS 161709Z 35012KT 12/09 A2994 RMK A01 T01230089  RH  079%=      5-min Rain = 0
KRLS 161710Z 34015KT 13/09 A2994 RMK A01 T01250091  RH  080%=      5-min Rain = 0
KRLS 161711Z 34014KT 13/09 A2995 RMK A01 T01250088  RH  078%=      5-min Rain = 0
KRLS 161712Z 35013KT 12/09 A2995 RMK A01 T01240089  RH  079%=      5-min Rain = 0
KRLS 161713Z 35015G20KT 12/09 A2995 RMK A01 T01240087  RH  078%=      5-min Rain = 0
KRLS 161714Z 35017KT 12/09 A2995 RMK A01 T01230088  RH  079%=      5-min Rain = 0
KRLS 161715Z 35015KT 12/08 A2994 RMK A01 T01230083  RH  076%=      5-min Rain = 0
KRLS 161716Z 35013KT 12/09 A2995 RMK A01 T01220085  RH  078%=      5-min Rain = 0
KRLS 161717Z 36012G17KT 13/09 A2995 RMK A01 T01250090  RH  079%=      5-min Rain = 0
KRLS 161718Z 36013KT 13/09 A2995 RMK A01 T01260085  RH  076%=      5-min Rain = 0
KRLS 161719Z 35011KT 13/09 A2994 RMK A01 T01260087  RH  077%=      5-min Rain = 0
KRLS 161720Z 00012KT 13/09 A2994 RMK A01 T01270088  RH  077%=      5-min Rain = 0
KRLS 161721Z 35013KT 13/09 A2994 RMK A01 T01270087  RH  077%=      5-min Rain = 0
KRLS 161722Z 36013KT 13/09 A2994 RMK A01 T01270087  RH  077%=      5-min Rain = 0
KRLS 161723Z 00014KT 13/09 A2994 RMK A01 T01270089  RH  078%=      5-min Rain = 0
KRLS 161724Z 00012KT 13/09 A2994 RMK A01 T01270087  RH  077%=      5-min Rain = 0
KRLS 161725Z 36011KT 13/09 A2994 RMK A01 T01260087  RH  077%=      5-min Rain = 0
KRLS 161726Z 35011KT 13/09 A2994 RMK A01 T01260088  RH  078%=      5-min Rain = 0
KRLS 161727Z 00012KT 13/09 A2994 RMK A01 T01260088  RH  078%=      5-min Rain = 0
KRLS 161728Z 00013KT 13/09 A2994 RMK A01 T01250088  RH  078%=      5-min Rain = 0
KRLS 161729Z 35014KT 12/09 A2994 RMK A01 T01240090  RH  080%=      5-min Rain = 0
KRLS 161730Z 36014KT 12/09 A2994 RMK A01 T01240087  RH  078%=      5-min Rain = 0
KRLS 161731Z 35012G17KT 12/09 A2994 RMK A01 T01230085  RH  078%=      5-min Rain = 0
KRLS 161732Z 36013KT 12/09 A2994 RMK A01 T01230088  RH  080%=      5-min Rain = 0
KRLS 161733Z 35017G25KT 12/09 A2994 RMK A01 T01220088  RH  079%=      5-min Rain = 0
KRLS 161734Z 35019G24KT 12/08 A2994 RMK A01 T01210084  RH  078%=      5-min Rain = 0
KRLS 161735Z 36016G21KT 12/08 A2995 RMK A01 T01180084  RH  079%=      5-min Rain = 0
KRLS 161736Z 36017G22KT 12/08 A2995 RMK A01 T01180084  RH  080%=      5-min Rain = 0
KRLS 161737Z 35015KT 12/08 A2994 RMK A01 T01180084  RH  080%=      5-min Rain = 0
KRLS 161738Z 35013G21KT 12/09 A2995 RMK A01 T01180087  RH  081%=      5-min Rain = 0
KRLS 161739Z 36017KT 12/09 A2995 RMK A01 T01200086  RH  080%=      5-min Rain = 0
KRLS 161740Z 36017KT 12/08 A2995 RMK A01 T01190083  RH  078%=      5-min Rain = 0
KRLS 161741Z 36016G21KT 12/08 A2995 RMK A01 T01190084  RH  079%=      5-min Rain = 0
KRLS 161742Z 00017KT 12/08 A2995 RMK A01 T01190081  RH  078%=      5-min Rain = 0
KRLS 161743Z 36016KT 12/08 A2995 RMK A01 T01190082  RH  078%=      5-min Rain = 0
KRLS 161744Z 35015G20KT 12/08 A2995 RMK A01 T01200083  RH  078%=      5-min Rain = 0
KRLS 161745Z 35018G23KT 12/08 A2995 RMK A01 T01210083  RH  078%=      5-min Rain = 0
KRLS 161746Z 35017G23KT 12/08 A2995 RMK A01 T01220082  RH  077%=      5-min Rain = 0
KRLS 161747Z 35020G25KT 12/08 A2995 RMK A01 T01210081  RH  076%=      5-min Rain = 0
KRLS 161748Z 36019KT 12/08 A2995 RMK A01 T01210080  RH  076%=      5-min Rain = 0
KRLS 161749Z 36016G21KT 12/08 A2995 RMK A01 T01210081  RH  076%=      5-min Rain = 0
KRLS 161750Z 36017G23KT 13/08 A2995 RMK A01 T01250084  RH  076%=      5-min Rain = 0
KRLS 161751Z 00016G23KT 13/09 A2995 RMK A01 T01270086  RH  076%=      5-min Rain = 0
KRLS 161752Z 36019G24KT 13/08 A2995 RMK A01 T01280084  RH  075%=      5-min Rain = 0
KRLS 161753Z 00019G24KT 13/08 A2995 RMK A01 T01270083  RH  075%=      5-min Rain = 0
KRLS 161754Z 00016KT 13/08 A2995 RMK A01 T01260082  RH  075%=      5-min Rain = 0
KRLS 161755Z 36015KT 13/08 A2995 RMK A01 T01260083  RH  075%=      5-min Rain = 0
KRLS 161756Z 36015KT 12/08 A2995 RMK A01 T01230078  RH  074%=      5-min Rain = 0
KRLS 161757Z 36016KT 12/08 A2995 RMK A01 T01200076  RH  075%=      5-min Rain = 0
KRLS 161758Z 35016KT 12/07 A2995 RMK A01 T01180074  RH  074%=      5-min Rain = 0
KRLS 161759Z 35014G19KT 12/08 A2995 RMK A01 T01160075  RH  076%=      5-min Rain = 0
KRLS 161800Z 36014KT 12/08 A2995 RMK A01 T01180080  RH  078%=      5-min Rain = 0
KRLS 161801Z 35014KT 12/08 A2995 RMK A01 T01190079  RH  076%=      5-min Rain = 0
KRLS 161802Z 36013KT 12/08 A2995 RMK A01 T01190080  RH  077%=      5-min Rain = 0
KRLS 161803Z 36016KT 12/08 A2995 RMK A01 T01190079  RH  076%=      5-min Rain = 0
KRLS 161804Z 36016KT 12/07 A2995 RMK A01 T01170074  RH  075%=      5-min Rain = 0
KRLS 161805Z 35014KT 12/07 A2995 RMK A01 T01150074  RH  076%=      5-min Rain = 0
KRLS 161806Z 36013KT 11/08 A2995 RMK A01 T01140076  RH  077%=      5-min Rain = 0
KRLS 161807Z 35015G22KT 12/08 A2995 RMK A01 T01150078  RH  078%=      5-min Rain = 0
KRLS 161808Z 34017KT 12/08 A2995 RMK A01 T01150080  RH  079%=      5-min Rain = 0
KRLS 161809Z 35017G23KT 11/08 A2995 RMK A01 T01140080  RH  080%=      5-min Rain = 0
KRLS 161810Z 35015G20KT 11/08 A2996 RMK A01 T01120078  RH  079%=      5-min Rain = 0
KRLS 161811Z 35019KT 11/08 A2996 RMK A01 T01100076  RH  080%=      5-min Rain = 0
KRLS 161812Z 35020G26KT 11/07 A2996 RMK A01 T01080073  RH  079%=      5-min Rain = 0
KRLS 161813Z 35019G24KT 11/07 A2996 RMK A01 T01060073  RH  080%=      5-min Rain = 0
KRLS 161814Z 35018G26KT 11/07 A2996 RMK A01 T01060072  RH  080%=      5-min Rain = 0
KRLS 161815Z 35019KT 11/07 A2996 RMK A01 T01050072  RH  080%=      5-min Rain = 0
KRLS 161816Z 36018KT 11/07 A2996 RMK A01 T01050073  RH  080%=      5-min Rain = 0
KRLS 161817Z 36018G23KT 11/07 A2996 RMK A01 T01050073  RH  080%=      5-min Rain = 0
KRLS 161818Z 35015KT 11/07 A2996 RMK A01 T01050074  RH  081%=      5-min Rain = 0
KRLS 161819Z 35018G26KT 11/08 A2996 RMK A01 T01080077  RH  081%=      5-min Rain = 0
KRLS 161820Z 35021G26KT 11/08 A2996 RMK A01 T01090075  RH  079%=      5-min Rain = 0
KRLS 161821Z 35015KT 11/07 A2996 RMK A01 T01090074  RH  079%=      5-min Rain = 0
KRLS 161822Z 35017G22KT 11/08 A2996 RMK A01 T01090075  RH  079%=      5-min Rain = 0
KRLS 161823Z 34018KT 11/07 A2996 RMK A01 T01090073  RH  078%=      5-min Rain = 0
KRLS 161824Z 35013G18KT 11/07 A2996 RMK A01 T01080074  RH  079%=      5-min Rain = 0
KRLS 161825Z 35017G23KT 11/07 A2996 RMK A01 T01090074  RH  079%=      5-min Rain = 0
KRLS 161826Z 35016KT 11/07 A2996 RMK A01 T01070071  RH  078%=      5-min Rain = 0
KRLS 161827Z 35018KT 11/07 A2996 RMK A01 T01060072  RH  080%=      5-min Rain = 0
KRLS 161828Z 35016G21KT 11/07 A2996 RMK A01 T01050071  RH  080%=      5-min Rain = 0
KRLS 161829Z 35018KT 10/07 A2996 RMK A01 T01030070  RH  080%=      5-min Rain = 0
KRLS 161830Z 35014KT 10/07 A2996 RMK A01 T01020069  RH  080%=      5-min Rain = 0
KRLS 161831Z 35013KT 10/07 A2996 RMK A01 T01020070  RH  081%=      5-min Rain = 0
KRLS 161832Z 35015KT 10/07 A2996 RMK A01 T01030071  RH  081%=      5-min Rain = 0
KRLS 161833Z 34013G20KT 10/07 A2996 RMK A01 T01040072  RH  081%=      5-min Rain = 0
KRLS 161834Z 34015G20KT 10/07 A2997 RMK A01 T01040071  RH  080%=      5-min Rain = 0
KRLS 161835Z 35015G23KT 10/07 A2997 RMK A01 T01040072  RH  080%=      5-min Rain = 0
KRLS 161836Z 35015KT 10/07 A2997 RMK A01 T01040071  RH  080%=      5-min Rain = 0
KRLS 161837Z 35013KT 10/07 A2997 RMK A01 T01030071  RH  081%=      5-min Rain = 0
KRLS 161838Z 36014KT 10/07 A2997 RMK A01 T01030070  RH  080%=      5-min Rain = 0
KRLS 161839Z 35016KT 10/07 A2997 RMK A01 T01040070  RH  079%=      5-min Rain = 0
KRLS 161840Z 35015KT 11/07 A2996 RMK A01 T01060070  RH  079%=      5-min Rain = 0
KRLS 161841Z 35016KT 11/07 A2996 RMK A01 T01080070  RH  077%=      5-min Rain = 0
KRLS 161842Z 35014KT 11/07 A2996 RMK A01 T01080070  RH  077%=      5-min Rain = 0
KRLS 161843Z 00014G19KT 11/07 A2996 RMK A01 T01080072  RH  079%=      5-min Rain = 0
KRLS 161844Z 01012G18KT 11/07 A2996 RMK A01 T01090073  RH  078%=      5-min Rain = 0
KRLS 161845Z 00013KT 11/07 A2996 RMK A01 T01110072  RH  077%=      5-min Rain = 0
KRLS 161846Z 00013KT 11/07 A2996 RMK A01 T01110072  RH  077%=      5-min Rain = 0
KRLS 161847Z 35013G18KT 11/07 A2996 RMK A01 T01110070  RH  076%=      5-min Rain = 0
KRLS 161848Z 36013KT 11/07 A2996 RMK A01 T01100070  RH  076%=      5-min Rain = 0
KRLS 161849Z 36014KT 11/07 A2996 RMK A01 T01090069  RH  076%=      5-min Rain = 0
KRLS 161850Z 35014KT 11/07 A2996 RMK A01 T01080070  RH  077%=      5-min Rain = 0
KRLS 161851Z 35014G20KT 11/07 A2997 RMK A01 T01070071  RH  078%=      5-min Rain = 0
KRLS 161852Z 36014G19KT 11/07 A2997 RMK A01 T01070071  RH  078%=      5-min Rain = 0
KRLS 161853Z 00014KT 11/07 A2997 RMK A01 T01070073  RH  079%=      5-min Rain = 0
KRLS 161854Z 00014G20KT 11/07 A2997 RMK A01 T01080074  RH  080%=      5-min Rain = 0
KRLS 161855Z 01016G22KT 11/08 A2997 RMK A01 T01080075  RH  080%=      5-min Rain = 0
KRLS 161856Z 01016KT 11/07 A2997 RMK A01 T01080073  RH  079%=      5-min Rain = 0
KRLS 161857Z 01015G21KT 11/07 A2997 RMK A01 T01070072  RH  079%=      5-min Rain = 0
KRLS 161858Z 00014G19KT 11/07 A2997 RMK A01 T01070072  RH  079%=      5-min Rain = 0
KRLS 161859Z 36014KT 11/07 A2997 RMK A01 T01070070  RH  078%=      5-min Rain = 0
KRLS 161900Z 36013G19KT 11/07 A2997 RMK A01 T01080072  RH  079%=      5-min Rain = 0
KRLS 161901Z 35010G15KT 11/07 A2997 RMK A01 T01090071  RH  078%=      5-min Rain = 0
KRLS 161902Z 35014G19KT 11/07 A2997 RMK A01 T01100073  RH  078%=      5-min Rain = 0
KRLS 161903Z 35018G25KT 11/07 A2997 RMK A01 T01110070  RH  075%=      5-min Rain = 0
KRLS 161904Z 35014G19KT 11/07 A2997 RMK A01 T01120069  RH  075%=      5-min Rain = 0
KRLS 161905Z 34017G24KT 11/07 A2997 RMK A01 T01120069  RH  075%=      5-min Rain = 0
KRLS 161906Z 35018KT 11/07 A2997 RMK A01 T01110066  RH  074%=      5-min Rain = 0
KRLS 161907Z 00014G19KT 11/07 A2997 RMK A01 T01090071  RH  077%=      5-min Rain = 0
KRLS 161908Z 01019KT 11/07 A2997 RMK A01 T01090071  RH  078%=      5-min Rain = 0
KRLS 161909Z 01016G23KT 11/07 A2997 RMK A01 T01070070  RH  078%=      5-min Rain = 0
KRLS 161910Z 00014KT 11/07 A2997 RMK A01 T01060068  RH  078%=      5-min Rain = 0
KRLS 161911Z 00012G17KT 11/07 A2997 RMK A01 T01060069  RH  078%=      5-min Rain = 0
KRLS 161912Z 00017G23KT 11/07 A2997 RMK A01 T01060069  RH  078%=      5-min Rain = 0
KRLS 161913Z 36016G22KT 11/07 A2997 RMK A01 T01050066  RH  076%=      5-min Rain = 0
KRLS 161914Z 36015G22KT 10/07 A2997 RMK A01 T01040067  RH  077%=      5-min Rain = 0
KRLS 161915Z 35016G22KT 10/07 A2997 RMK A01 T01040066  RH  077%=      5-min Rain = 0
KRLS 161916Z 35017G22KT 11/06 A2997 RMK A01 T01050064  RH  076%=      5-min Rain = 0
KRLS 161917Z 34015KT 10/06 A2997 RMK A01 T01040064  RH  076%=      5-min Rain = 0
KRLS 161918Z 35013KT 11/07 A2997 RMK A01 T01050066  RH  077%=      5-min Rain = 0
KRLS 161919Z 36017G25KT 11/07 A2997 RMK A01 T01060067  RH  076%=      5-min Rain = 0
KRLS 161920Z 35019G25KT 11/06 A2997 RMK A01 T01060064  RH  075%=      5-min Rain = 0
KRLS 161921Z 36013G19KT 10/06 A2997 RMK A01 T01040064  RH  076%=      5-min Rain = 0
KRLS 161922Z 36013G21KT 10/07 A2998 RMK A01 T01030066  RH  078%=      5-min Rain = 0
KRLS 161923Z 36018G23KT 10/07 A2998 RMK A01 T01040065  RH  077%=      5-min Rain = 0
KRLS 161924Z 35019G25KT 10/06 A2998 RMK A01 T01040061  RH  075%=      5-min Rain = 0
KRLS 161925Z 35018G24KT 10/06 A2997 RMK A01 T01030061  RH  075%=      5-min Rain = 0
KRLS 161926Z 00016KT 10/06 A2997 RMK A01 T01030062  RH  076%=      5-min Rain = 0
KRLS 161927Z 36015KT 10/06 A2997 RMK A01 T01030063  RH  076%=      5-min Rain = 0
KRLS 161928Z 36015G20KT 10/06 A2997 RMK A01 T01040064  RH  076%=      5-min Rain = 0
KRLS 161929Z 36014KT 11/06 A2997 RMK A01 T01050062  RH  075%=      5-min Rain = 0
KRLS 161930Z 00016G21KT 11/06 A2997 RMK A01 T01050063  RH  075%=      5-min Rain = 0
KRLS 161931Z 36017G22KT 11/06 A2997 RMK A01 T01050064  RH  076%=      5-min Rain = 0
KRLS 161932Z 35015KT 11/06 A2997 RMK A01 T01060063  RH  075%=      5-min Rain = 0
KRLS 161933Z 36015G21KT 11/06 A2997 RMK A01 T01060064  RH  075%=      5-min Rain = 0
KRLS 161934Z 01016G22KT 11/06 A2997 RMK A01 T01080063  RH  074%=      5-min Rain = 0
KRLS 161935Z 01017KT 11/06 A2997 RMK A01 T01080061  RH  073%=      5-min Rain = 0
KRLS 161936Z 01016G21KT 11/06 A2997 RMK A01 T01070063  RH  074%=      5-min Rain = 0
KRLS 161937Z 01014KT 11/06 A2997 RMK A01 T01070062  RH  074%=      5-min Rain = 0
KRLS 161938Z 00013KT 11/06 A2997 RMK A01 T01070062  RH  073%=      5-min Rain = 0
KRLS 161939Z 01014KT 11/07 A2997 RMK A01 T01100067  RH  075%=      5-min Rain = 0
KRLS 161940Z 00013G18KT 11/07 A2997 RMK A01 T01130065  RH  072%=      5-min Rain = 0
KRLS 161941Z 01012KT 12/07 A2997 RMK A01 T01160070  RH  073%=      5-min Rain = 0
KRLS 161942Z 00013KT 12/07 A2997 RMK A01 T01200073  RH  073%=      5-min Rain = 0
KRLS 161943Z 00013G18KT 12/07 A2997 RMK A01 T01220067  RH  069%=      5-min Rain = 0
KRLS 161944Z 00013KT 12/07 A2997 RMK A01 T01230068  RH  069%=      5-min Rain = 0
KRLS 161945Z 00013KT 12/07 A2997 RMK A01 T01230066  RH  068%=      5-min Rain = 0
KRLS 161946Z 01013G18KT 12/07 A2997 RMK A01 T01230071  RH  071%=      5-min Rain = 0
KRLS 161947Z 01015KT 12/07 A2997 RMK A01 T01240074  RH  071%=      5-min Rain = 0
KRLS 161948Z 01015KT 12/07 A2997 RMK A01 T01240070  RH  069%=      5-min Rain = 0
KRLS 161949Z 02014KT 12/07 A2997 RMK A01 T01200069  RH  071%=      5-min Rain = 0
KRLS 161950Z 01016KT 12/07 A2996 RMK A01 T01180070  RH  072%=      5-min Rain = 0
KRLS 161951Z 02016KT 12/07 A2996 RMK A01 T01180070  RH  072%=      5-min Rain = 0
KRLS 161952Z 02015KT 12/07 A2996 RMK A01 T01170069  RH  072%=      5-min Rain = 0
KRLS 161953Z 02015KT 12/07 A2996 RMK A01 T01170070  RH  073%=      5-min Rain = 0
KRLS 161954Z 01014G19KT 12/07 A2997 RMK A01 T01190070  RH  072%=      5-min Rain = 0
KRLS 161955Z 01013KT 12/07 A2996 RMK A01 T01210067  RH  070%=      5-min Rain = 0
KRLS 161956Z 01015KT 12/07 A2996 RMK A01 T01230069  RH  070%=      5-min Rain = 0
KRLS 161957Z 01015G21KT 12/07 A2996 RMK A01 T01220067  RH  069%=      5-min Rain = 0
KRLS 161958Z 01018KT 12/06 A2996 RMK A01 T01220063  RH  068%=      5-min Rain = 0
KRLS 161959Z 01014G19KT 12/06 A2996 RMK A01 T01190063  RH  068%=      5-min Rain = 0
KRLS 162000Z 01015G20KT 12/07 A2996 RMK A01 T01200067  RH  070%=      5-min Rain = 0
KRLS 162001Z 01017KT 12/07 A2996 RMK A01 T01210066  RH  069%=      5-min Rain = 0
KRLS 162002Z 01015KT 12/07 A2996 RMK A01 T01200065  RH  069%=      5-min Rain = 0
KRLS 162003Z 02018KT 12/07 A2996 RMK A01 T01200069  RH  071%=      5-min Rain = 0
KRLS 162004Z 02018KT 12/07 A2996 RMK A01 T01210070  RH  071%=      5-min Rain = 0
KRLS 162005Z 01019G25KT 12/07 A2996 RMK A01 T01210068  RH  070%=      5-min Rain = 0
KRLS 162006Z 00015G21KT 12/07 A2997 RMK A01 T01200067  RH  070%=      5-min Rain = 0
KRLS 162007Z 00015G20KT 12/07 A2997 RMK A01 T01200065  RH  069%=      5-min Rain = 0
KRLS 162008Z 01015KT 12/06 A2997 RMK A01 T01200063  RH  068%=      5-min Rain = 0
KRLS 162009Z 01016G21KT 12/07 A2997 RMK A01 T01220069  RH  070%=      5-min Rain = 0
KRLS 162010Z 00015KT 12/07 A2997 RMK A01 T01240065  RH  067%=      5-min Rain = 0
KRLS 162011Z 36014KT 13/07 A2997 RMK A01 T01260066  RH  067%=      5-min Rain = 0
KRLS 162012Z 01014G19KT 13/07 A2997 RMK A01 T01260065  RH  066%=      5-min Rain = 0
KRLS 162013Z 02014G20KT 13/07 A2996 RMK A01 T01270068  RH  067%=      5-min Rain = 0
KRLS 162014Z 01013KT 13/07 A2996 RMK A01 T01280069  RH  067%=      5-min Rain = 0
KRLS 162015Z 01013KT 13/07 A2996 RMK A01 T01270065  RH  066%=      5-min Rain = 0
KRLS 162016Z 01014G19KT 13/07 A2996 RMK A01 T01280065  RH  066%=      5-min Rain = 0
KRLS 162017Z 00014G19KT 13/07 A2996 RMK A01 T01320068  RH  065%=      5-min Rain = 0
KRLS 162018Z 01014G19KT 14/08 A2996 RMK A01 T01360075  RH  066%=      5-min Rain = 0
KRLS 162019Z 35017G24KT 14/07 A2996 RMK A01 T01370066  RH  062%=      5-min Rain = 0
KRLS 162020Z 35019KT 13/06 A2996 RMK A01 T01330057  RH  060%=      5-min Rain = 0
KRLS 162021Z 36017G22KT 13/06 A2996 RMK A01 T01310055  RH  060%=      5-min Rain = 0
KRLS 162022Z 35018KT 13/06 A2996 RMK A01 T01300055  RH  060%=      5-min Rain = 0
KRLS 162023Z 36014G19KT 13/05 A2996 RMK A01 T01300054  RH  060%=      5-min Rain = 0
KRLS 162024Z 00018G26KT 13/06 A2996 RMK A01 T01300059  RH  062%=      5-min Rain = 0
KRLS 162025Z 01016KT 13/07 A2996 RMK A01 T01340066  RH  064%=      5-min Rain = 0
KRLS 162026Z 01016G23KT 14/06 A2996 RMK A01 T01350064  RH  062%=      5-min Rain = 0
KRLS 162027Z 02015KT 13/06 A2996 RMK A01 T01320061  RH  062%=      5-min Rain = 0
KRLS 162028Z 02017KT 13/07 A2996 RMK A01 T01320065  RH  064%=      5-min Rain = 0
KRLS 162029Z 00015G20KT 13/06 A2996 RMK A01 T01320063  RH  063%=      5-min Rain = 0
KRLS 162030Z 01017G26KT 13/06 A2996 RMK A01 T01310059  RH  061%=      5-min Rain = 0
KRLS 162031Z 01020G26KT 13/06 A2996 RMK A01 T01290057  RH  062%=      5-min Rain = 0
KRLS 162032Z 01019G26KT 13/06 A2996 RMK A01 T01290061  RH  063%=      5-min Rain = 0
KRLS 162033Z 00019G25KT 13/06 A2996 RMK A01 T01340059  RH  060%=      5-min Rain = 0
KRLS 162034Z 00016G21KT 14/05 A2996 RMK A01 T01350053  RH  058%=      5-min Rain = 0
KRLS 162035Z 36015G21KT 14/05 A2996 RMK A01 T01360054  RH  058%=      5-min Rain = 0
KRLS 162036Z 01014KT 14/06 A2996 RMK A01 T01370055  RH  058%=      5-min Rain = 0
KRLS 162037Z 01016G21KT 14/06 A2997 RMK A01 T01380060  RH  059%=      5-min Rain = 0
KRLS 162038Z 00019G24KT 14/06 A2997 RMK A01 T01360055  RH  058%=      5-min Rain = 0
KRLS 162039Z 36019G24KT 13/05 A2997 RMK A01 T01330054  RH  059%=      5-min Rain = 0
KRLS 162040Z 36018G24KT 13/05 A2997 RMK A01 T01300051  RH  059%=      5-min Rain = 0
KRLS 162041Z 36015G20KT 13/06 A2997 RMK A01 T01310055  RH  060%=      5-min Rain = 0
KRLS 162042Z 35015KT 14/06 A2997 RMK A01 T01360056  RH  058%=      5-min Rain = 0
KRLS 162043Z 36014G23KT 14/05 A2997 RMK A01 T01350053  RH  057%=      5-min Rain = 0
KRLS 162044Z 35017G23KT 14/05 A2997 RMK A01 T01350050  RH  056%=      5-min Rain = 0
KRLS 162045Z 35017G22KT 14/05 A2997 RMK A01 T01380053  RH  056%=      5-min Rain = 0
KRLS 162046Z 00018G23KT 14/05 A2997 RMK A01 T01410051  RH  054%=      5-min Rain = 0
KRLS 162047Z 00018KT 14/05 A2997 RMK A01 T01390050  RH  055%=      5-min Rain = 0
KRLS 162048Z 00015KT 14/05 A2997 RMK A01 T01370048  RH  055%=      5-min Rain = 0
KRLS 162049Z 35017G22KT 13/05 A2997 RMK A01 T01340045  RH  055%=      5-min Rain = 0
KRLS 162050Z 00016KT 13/04 A2997 RMK A01 T01300043  RH  056%=      5-min Rain = 0
KRLS 162051Z 01017KT 13/05 A2997 RMK A01 T01290047  RH  058%=      5-min Rain = 0
KRLS 162052Z 35017KT 13/05 A2997 RMK A01 T01300049  RH  058%=      5-min Rain = 0
KRLS 162053Z 00016G21KT 13/05 A2997 RMK A01 T01330050  RH  057%=      5-min Rain = 0
KRLS 162054Z 35017G22KT 14/05 A2997 RMK A01 T01350048  RH  056%=      5-min Rain = 0
KRLS 162055Z 36014KT 13/05 A2997 RMK A01 T01340046  RH  055%=      5-min Rain = 0
KRLS 162056Z 36015G20KT 13/05 A2997 RMK A01 T01320048  RH  057%=      5-min Rain = 0
KRLS 162057Z 01018G23KT 14/05 A2997 RMK A01 T01360054  RH  058%=      5-min Rain = 0
KRLS 162058Z 01017G22KT 14/05 A2997 RMK A01 T01360054  RH  058%=      5-min Rain = 0
KRLS 162059Z 02019KT 14/06 A2997 RMK A01 T01360056  RH  059%=      5-min Rain = 0
KRLS 162100Z 03018KT 13/06 A2997 RMK A01 T01320057  RH  060%=      5-min Rain = 0
KRLS 162101Z 02020KT 13/06 A2997 RMK A01 T01290056  RH  061%=      5-min Rain = 0
KRLS 162102Z 01017G22KT 13/06 A2997 RMK A01 T01280057  RH  062%=      5-min Rain = 0
KRLS 162103Z 36018G25KT 13/05 A2997 RMK A01 T01310054  RH  060%=      5-min Rain = 0
KRLS 162104Z 36018KT 13/05 A2997 RMK A01 T01290052  RH  060%=      5-min Rain = 0
KRLS 162105Z 00017G24KT 13/05 A2997 RMK A01 T01280052  RH  060%=      5-min Rain = 0
KRLS 162106Z 01014G19KT 13/05 A2997 RMK A01 T01270051  RH  060%=      5-min Rain = 0
KRLS 162107Z 02018G23KT 13/05 A2997 RMK A01 T01280053  RH  060%=      5-min Rain = 0
KRLS 162108Z 02017G23KT 13/05 A2997 RMK A01 T01310054  RH  060%=      5-min Rain = 0
KRLS 162109Z 01015G21KT 13/05 A2997 RMK A01 T01320052  RH  058%=      5-min Rain = 0
KRLS 162110Z 02017G23KT 13/06 A2997 RMK A01 T01340055  RH  059%=      5-min Rain = 0
KRLS 162111Z 36015G23KT 14/06 A2997 RMK A01 T01380055  RH  057%=      5-min Rain = 0
KRLS 162112Z 35018G23KT 14/05 A2997 RMK A01 T01370048  RH  055%=      5-min Rain = 0
KRLS 162113Z 35015G20KT 13/05 A2997 RMK A01 T01310045  RH  056%=      5-min Rain = 0
KRLS 162114Z 00014G21KT 13/05 A2997 RMK A01 T01280048  RH  058%=      5-min Rain = 0
KRLS 162115Z 01018G24KT 13/05 A2997 RMK A01 T01300052  RH  059%=      5-min Rain = 0
KRLS 162116Z 02015KT 13/05 A2997 RMK A01 T01310052  RH  059%=      5-min Rain = 0
KRLS 162117Z 02014KT 13/05 A2997 RMK A01 T01300053  RH  060%=      5-min Rain = 0
KRLS 162118Z 00014KT 13/05 A2997 RMK A01 T01310053  RH  059%=      5-min Rain = 0
KRLS 162119Z 01014KT 13/05 A2997 RMK A01 T01300051  RH  059%=      5-min Rain = 0
KRLS 162120Z 00015KT 13/05 A2997 RMK A01 T01310053  RH  059%=      5-min Rain = 0
KRLS 162121Z 35015KT 13/05 A2997 RMK A01 T01310048  RH  057%=      5-min Rain = 0
KRLS 162122Z 35012KT 13/05 A2997 RMK A01 T01280047  RH  058%=      5-min Rain = 0
KRLS 162123Z 35014G19KT 13/05 A2997 RMK A01 T01290051  RH  059%=      5-min Rain = 0
KRLS 162124Z 00015G20KT 13/05 A2997 RMK A01 T01290045  RH  057%=      5-min Rain = 0
KRLS 162125Z 01017G23KT 13/05 A2997 RMK A01 T01280052  RH  060%=      5-min Rain = 0
KRLS 162126Z 02018G23KT 13/06 A2997 RMK A01 T01290056  RH  061%=      5-min Rain = 0
KRLS 162127Z 01018KT 13/06 A2997 RMK A01 T01320057  RH  060%=      5-min Rain = 0
KRLS 162128Z 01017G23KT 13/06 A2997 RMK A01 T01310056  RH  060%=      5-min Rain = 0
KRLS 162129Z 01017G22KT 13/06 A2997 RMK A01 T01300055  RH  060%=      5-min Rain = 0
KRLS 162130Z 00015G20KT 13/05 A2997 RMK A01 T01290054  RH  060%=      5-min Rain = 0
KRLS 162131Z 00016KT 13/05 A2997 RMK A01 T01280051  RH  060%=      5-min Rain = 0
KRLS 162132Z 01014G21KT 13/05 A2997 RMK A01 T01270053  RH  061%=      5-min Rain = 0
KRLS 162133Z 01017KT 13/05 A2997 RMK A01 T01270053  RH  061%=      5-min Rain = 0
KRLS 162134Z 01015G22KT 13/05 A2997 RMK A01 T01280050  RH  059%=      5-min Rain = 0
KRLS 162135Z 01017G23KT 13/05 A2997 RMK A01 T01300053  RH  059%=      5-min Rain = 0
KRLS 162136Z 35016KT 13/05 A2997 RMK A01 T01310050  RH  058%=      5-min Rain = 0
KRLS 162137Z 00016KT 13/05 A2997 RMK A01 T01290050  RH  059%=      5-min Rain = 0
KRLS 162138Z 01017G23KT 13/05 A2997 RMK A01 T01310053  RH  059%=      5-min Rain = 0
KRLS 162139Z 01019G25KT 13/05 A2997 RMK A01 T01320052  RH  058%=      5-min Rain = 0
KRLS 162140Z 01018G24KT 13/05 A2997 RMK A01 T01310051  RH  058%=      5-min Rain = 0
KRLS 162141Z 02017KT 13/05 A2997 RMK A01 T01300051  RH  058%=      5-min Rain = 0
KRLS 162142Z 03016G24KT 13/05 A2997 RMK A01 T01280051  RH  059%=      5-min Rain = 0
KRLS 162143Z 03018KT 13/05 A2997 RMK A01 T01310054  RH  059%=      5-min Rain = 0
KRLS 162144Z 02016G21KT 13/05 A2997 RMK A01 T01330051  RH  058%=      5-min Rain = 0
KRLS 162145Z 02014KT 14/06 A2997 RMK A01 T01360056  RH  059%=      5-min Rain = 0
KRLS 162146Z 00015KT 14/06 A2997 RMK A01 T01380055  RH  057%=      5-min Rain = 0
KRLS 162147Z 01015G21KT 14/05 A2997 RMK A01 T01370048  RH  055%=      5-min Rain = 0
KRLS 162148Z 35019G24KT 14/05 A2997 RMK A01 T01360048  RH  055%=      5-min Rain = 0
KRLS 162149Z 36016G21KT 14/05 A2997 RMK A01 T01380047  RH  054%=      5-min Rain = 0
KRLS 162150Z 36014KT 14/05 A2997 RMK A01 T01370046  RH  054%=      5-min Rain = 0
KRLS 162151Z 00015KT 13/04 A2997 RMK A01 T01340042  RH  053%=      5-min Rain = 0
KRLS 162152Z 02016KT 13/05 A2997 RMK A01 T01320045  RH  055%=      5-min Rain = 0
KRLS 162153Z 03017KT 13/05 A2997 RMK A01 T01310048  RH  057%=      5-min Rain = 0
KRLS 162154Z 02017KT 13/05 A2997 RMK A01 T01300045  RH  056%=      5-min Rain = 0
KRLS 162155Z 01016KT 13/05 A2997 RMK A01 T01300049  RH  058%=      5-min Rain = 0
KRLS 162156Z 01015KT 13/05 A2997 RMK A01 T01310048  RH  057%=      5-min Rain = 0
KRLS 162157Z 02017G23KT 13/05 A2997 RMK A01 T01330052  RH  058%=      5-min Rain = 0
KRLS 162158Z 01019G24KT 14/05 A2997 RMK A01 T01360051  RH  056%=      5-min Rain = 0
KRLS 162159Z 36018G24KT 14/05 A2997 RMK A01 T01370051  RH  056%=      5-min Rain = 0
KRLS 162200Z 01017KT 14/05 A2997 RMK A01 T01380048  RH  055%=      5-min Rain = 0
KRLS 162201Z 02019G24KT 14/05 A2997 RMK A01 T01390050  RH  055%=      5-min Rain = 0
KRLS 162202Z 02018KT 14/05 A2997 RMK A01 T01350045  RH  054%=      5-min Rain = 0
KRLS 162203Z 01019G24KT 13/05 A2997 RMK A01 T01330046  RH  056%=      5-min Rain = 0
KRLS 162204Z 01018G23KT 13/04 A2997 RMK A01 T01310043  RH  055%=      5-min Rain = 0
KRLS 162205Z 01020G25KT 13/04 A2997 RMK A01 T01300043  RH  056%=      5-min Rain = 0
KRLS 162206Z 01017G24KT 13/04 A2997 RMK A01 T01280044  RH  057%=      5-min Rain = 0
KRLS 162207Z 01015G20KT 13/04 A2997 RMK A01 T01270044  RH  057%=      5-min Rain = 0
KRLS 162208Z 01015KT 13/05 A2997 RMK A01 T01260045  RH  058%=      5-min Rain = 0
KRLS 162209Z 02016G23KT 13/05 A2997 RMK A01 T01260046  RH  058%=      5-min Rain = 0
KRLS 162210Z 01018G23KT 13/05 A2997 RMK A01 T01260045  RH  058%=      5-min Rain = 0
KRLS 162211Z 01019G24KT 13/05 A2997 RMK A01 T01270047  RH  058%=      5-min Rain = 0
KRLS 162212Z 36018G25KT 13/05 A2998 RMK A01 T01280046  RH  057%=      5-min Rain = 0
KRLS 162213Z 01019G24KT 13/05 A2998 RMK A01 T01300047  RH  057%=      5-min Rain = 0
KRLS 162214Z 02016G22KT 13/04 A2998 RMK A01 T01310044  RH  056%=      5-min Rain = 0
KRLS 162215Z 02017G22KT 13/05 A2998 RMK A01 T01300045  RH  056%=      5-min Rain = 0
KRLS 162216Z 01018KT 13/05 A2998 RMK A01 T01290045  RH  057%=      5-min Rain = 0
KRLS 162217Z 02020KT 13/04 A2998 RMK A01 T01270043  RH  057%=      5-min Rain = 0
KRLS 162218Z 03017KT 13/04 A2998 RMK A01 T01250043  RH  057%=      5-min Rain = 0
KRLS 162219Z 02017KT 12/04 A2998 RMK A01 T01240042  RH  057%=      5-min Rain = 0
KRLS 162220Z 35012G17KT 13/05 A2998 RMK A01 T01270045  RH  058%=      5-min Rain = 0
KRLS 162221Z 35013KT 13/05 A2998 RMK A01 T01300045  RH  056%=      5-min Rain = 0
KRLS 162222Z 35014KT 13/04 A2998 RMK A01 T01310044  RH  055%=      5-min Rain = 0
KRLS 162223Z 35015KT 13/04 A2998 RMK A01 T01310041  RH  054%=      5-min Rain = 0
KRLS 162224Z 35014KT 13/04 A2998 RMK A01 T01320043  RH  055%=      5-min Rain = 0
KRLS 162225Z 35016KT 13/04 A2998 RMK A01 T01320042  RH  054%=      5-min Rain = 0
KRLS 162226Z 00016G21KT 13/04 A2998 RMK A01 T01320042  RH  054%=      5-min Rain = 0
KRLS 162227Z 01018G25KT 13/05 A2998 RMK A01 T01330046  RH  056%=      5-min Rain = 0
KRLS 162228Z 02020KT 13/05 A2998 RMK A01 T01340046  RH  055%=      5-min Rain = 0
KRLS 162229Z 01018G23KT 14/05 A2998 RMK A01 T01350046  RH  055%=      5-min Rain = 0
KRLS 162230Z 00017G23KT 14/04 A2998 RMK A01 T01350044  RH  054%=      5-min Rain = 0
KRLS 162231Z 01017G23KT 14/04 A2998 RMK A01 T01350042  RH  053%=      5-min Rain = 0
KRLS 162232Z 01015G20KT 13/04 A2999 RMK A01 T01320041  RH  054%=      5-min Rain = 0
KRLS 162233Z 01018G24KT 13/04 A2999 RMK A01 T01280040  RH  055%=      5-min Rain = 0
KRLS 162234Z 02021KT 13/04 A2999 RMK A01 T01260038  RH  055%=      5-min Rain = 0
KRLS 162235Z 02018G23KT 12/04 A2999 RMK A01 T01240040  RH  056%=      5-min Rain = 0
KRLS 162236Z 02019G24KT 13/04 A2999 RMK A01 T01250039  RH  056%=      5-min Rain = 0
KRLS 162237Z 02018G24KT 12/04 A2999 RMK A01 T01240039  RH  056%=      5-min Rain = 0
KRLS 162238Z 01018G23KT 13/04 A2999 RMK A01 T01250040  RH  056%=      5-min Rain = 0
KRLS 162239Z 01017KT 13/04 A2999 RMK A01 T01260038  RH  055%=      5-min Rain = 0
KRLS 162240Z 01015KT 13/04 A2999 RMK A01 T01260039  RH  055%=      5-min Rain = 0
KRLS 162241Z 01014KT 13/04 A2999 RMK A01 T01260039  RH  055%=      5-min Rain = 0
KRLS 162242Z 01017G24KT 13/04 A2999 RMK A01 T01260039  RH  055%=      5-min Rain = 0
KRLS 162243Z 00016G24KT 13/04 A2999 RMK A01 T01250040  RH  056%=      5-min Rain = 0
KRLS 162244Z 01017G24KT 13/04 A2999 RMK A01 T01260038  RH  055%=      5-min Rain = 0
KRLS 162245Z 01016G21KT 13/04 A2999 RMK A01 T01300044  RH  056%=      5-min Rain = 0
KRLS 162246Z 01017G23KT 13/04 A2999 RMK A01 T01320041  RH  054%=      5-min Rain = 0
KRLS 162247Z 00017KT 13/04 A2999 RMK A01 T01300037  RH  053%=      5-min Rain = 0
KRLS 162248Z 02017G22KT 13/04 A2999 RMK A01 T01260035  RH  054%=      5-min Rain = 0
KRLS 162249Z 02020G26KT 13/04 A2999 RMK A01 T01260037  RH  055%=      5-min Rain = 0
KRLS 162250Z 01020G28KT 13/04 A2999 RMK A01 T01250037  RH  055%=      5-min Rain = 0
KRLS 162251Z 36015KT 13/04 A2999 RMK A01 T01260036  RH  054%=      5-min Rain = 0
KRLS 162252Z 01016KT 13/04 A2999 RMK A01 T01250036  RH  054%=      5-min Rain = 0
KRLS 162253Z 01018KT 12/03 A2999 RMK A01 T01240032  RH  053%=      5-min Rain = 0
KRLS 162254Z 00017G22KT 12/03 A2999 RMK A01 T01230032  RH  054%=      5-min Rain = 0
KRLS 162255Z 01016G21KT 12/03 A2999 RMK A01 T01220032  RH  054%=      5-min Rain = 0
KRLS 162256Z 01016KT 12/03 A2999 RMK A01 T01220033  RH  055%=      5-min Rain = 0
KRLS 162257Z 01017G22KT 12/04 A2999 RMK A01 T01220036  RH  056%=      5-min Rain = 0
KRLS 162258Z 00017G22KT 12/03 A2999 RMK A01 T01220034  RH  055%=      5-min Rain = 0
KRLS 162259Z 01017G22KT 12/03 A2999 RMK A01 T01220034  RH  055%=      5-min Rain = 0
KRLS 162300Z 01018KT 12/03 A2999 RMK A01 T01210032  RH  054%=      5-min Rain = 0
KRLS 162301Z 01016G23KT 12/03 A2999 RMK A01 T01200032  RH  055%=      5-min Rain = 0
KRLS 162302Z 01017G22KT 12/03 A30 RMK A01 T01200031  RH  055%=      5-min Rain = 0
KRLS 162303Z 36016G21KT 12/03 A30 RMK A01 T01200030  RH  054%=      5-min Rain = 0
KRLS 162304Z 00015G20KT 12/03 A30 RMK A01 T01190028  RH  054%=      5-min Rain = 0
KRLS 162305Z 36019G28KT 12/03 A30 RMK A01 T01190029  RH  054%=      5-min Rain = 0
KRLS 162306Z 36017G25KT 12/03 A30 RMK A01 T01190028  RH  054%=      5-min Rain = 0
KRLS 162307Z 36018G23KT 12/03 A30 RMK A01 T01180028  RH  054%=      5-min Rain = 0
KRLS 162308Z 00019G24KT 12/03 A30 RMK A01 T01180028  RH  054%=      5-min Rain = 0
KRLS 162309Z 01016G21KT 12/03 A30 RMK A01 T01180031  RH  055%=      5-min Rain = 0
KRLS 162310Z 00015G22KT 12/03 A30 RMK A01 T01200032  RH  055%=      5-min Rain = 0
KRLS 162311Z 36017G23KT 12/03 A30 RMK A01 T01220029  RH  053%=      5-min Rain = 0
KRLS 162312Z 36017G22KT 12/03 A30 RMK A01 T01210027  RH  052%=      5-min Rain = 0
KRLS 162313Z 00017KT 12/03 A30 RMK A01 T01200027  RH  053%=      5-min Rain = 0
KRLS 162314Z 01016G23KT 12/03 A30 RMK A01 T01200030  RH  054%=      5-min Rain = 0
KRLS 162315Z 01020KT 12/03 A30 RMK A01 T01210029  RH  053%=      5-min Rain = 0
KRLS 162316Z 01017G24KT 12/03 A30 RMK A01 T01200028  RH  053%=      5-min Rain = 0
KRLS 162317Z 00016G21KT 12/03 A30 RMK A01 T01200028  RH  053%=      5-min Rain = 0
KRLS 162318Z 36018G23KT 12/03 A30 RMK A01 T01200026  RH  053%=      5-min Rain = 0
KRLS 162319Z 00016G21KT 12/03 A30 RMK A01 T01190026  RH  053%=      5-min Rain = 0
KRLS 162320Z 01015G22KT 12/03 A30 RMK A01 T01190030  RH  055%=      5-min Rain = 0
KRLS 162321Z 00019G24KT 12/03 A30 RMK A01 T01200030  RH  054%=      5-min Rain = 0
KRLS 162322Z 01020G25KT 12/03 A3001 RMK A01 T01190029  RH  054%=      5-min Rain = 0
KRLS 162323Z 00019G24KT 12/03 A3001 RMK A01 T01180028  RH  054%=      5-min Rain = 0
KRLS 162324Z 01021G26KT 12/03 A3001 RMK A01 T01180028  RH  054%=      5-min Rain = 0
KRLS 162325Z 01020KT 12/03 A3001 RMK A01 T01170027  RH  054%=      5-min Rain = 0
KRLS 162326Z 01018KT 12/03 A3001 RMK A01 T01160026  RH  054%=      5-min Rain = 0
KRLS 162327Z 01020G25KT 12/03 A3001 RMK A01 T01160028  RH  055%=      5-min Rain = 0
KRLS 162328Z 02017KT 12/03 A3001 RMK A01 T01150030  RH  056%=      5-min Rain = 0
KRLS 162329Z 01018KT 12/03 A3001 RMK A01 T01160032  RH  056%=      5-min Rain = 0
KRLS 162330Z 02016KT 12/03 A3001 RMK A01 T01160034  RH  057%=      5-min Rain = 0
KRLS 162331Z 02016G21KT 12/04 A3001 RMK A01 T01160035  RH  057%=      5-min Rain = 0
KRLS 162332Z 02015G21KT 12/04 A3001 RMK A01 T01160035  RH  058%=      5-min Rain = 0
KRLS 162333Z 01017G22KT 12/04 A3001 RMK A01 T01150035  RH  058%=      5-min Rain = 0
KRLS 162334Z 02018G23KT 12/03 A3001 RMK A01 T01150033  RH  057%=      5-min Rain = 0
KRLS 162335Z 02019KT 11/03 A3001 RMK A01 T01130032  RH  057%=      5-min Rain = 0
KRLS 162336Z 01016KT 11/03 A3001 RMK A01 T01120032  RH  058%=      5-min Rain = 0
KRLS 162337Z 01017G25KT 11/03 A3001 RMK A01 T01110032  RH  058%=      5-min Rain = 0
KRLS 162338Z 02021G26KT 11/03 A3001 RMK A01 T01110032  RH  058%=      5-min Rain = 0
KRLS 162339Z 02022KT 11/03 A3001 RMK A01 T01110031  RH  058%=      5-min Rain = 0
KRLS 162340Z 02022KT 11/03 A3001 RMK A01 T01100030  RH  058%=      5-min Rain = 0
KRLS 162341Z 02021KT 11/03 A3001 RMK A01 T01090029  RH  058%=      5-min Rain = 0
KRLS 162342Z 02021G28KT 11/03 A3002 RMK A01 T01090029  RH  058%=      5-min Rain = 0
KRLS 162343Z 02019G24KT 11/03 A3001 RMK A01 T01080029  RH  058%=      5-min Rain = 0
KRLS 162344Z 02020KT 11/03 A3002 RMK A01 T01080029  RH  058%=      5-min Rain = 0
KRLS 162345Z 02016G23KT 11/03 A3002 RMK A01 T01080029  RH  058%=      5-min Rain = 0
KRLS 162346Z 02016KT 11/03 A3002 RMK A01 T01080032  RH  059%=      5-min Rain = 0
KRLS 162347Z 02020KT 11/03 A3002 RMK A01 T01090030  RH  058%=      5-min Rain = 0
KRLS 162348Z 02020KT 11/03 A3002 RMK A01 T01090028  RH  057%=      5-min Rain = 0
KRLS 162349Z 01017G24KT 11/03 A3002 RMK A01 T01080029  RH  058%=      5-min Rain = 0
KRLS 162350Z 01017G23KT 11/03 A3002 RMK A01 T01080028  RH  058%=      5-min Rain = 0
KRLS 162351Z 01019KT 11/03 A3002 RMK A01 T01080027  RH  057%=      5-min Rain = 0
KRLS 162352Z 01020G25KT 11/03 A3002 RMK A01 T01080026  RH  057%=      5-min Rain = 0
KRLS 162353Z 01015G21KT 11/03 A3002 RMK A01 T01070026  RH  057%=      5-min Rain = 0
KRLS 162354Z 01018KT 11/03 A3002 RMK A01 T01070028  RH  058%=      5-min Rain = 0
KRLS 162355Z 01018G23KT 11/03 A3002 RMK A01 T01060027  RH  058%=      5-min Rain = 0
KRLS 162356Z 00017KT 11/03 A3002 RMK A01 T01060026  RH  058%=      5-min Rain = 0
KRLS 162357Z 01017G24KT 11/03 A3002 RMK A01 T01060027  RH  058%=      5-min Rain = 0
KRLS 162358Z 01018G24KT 11/02 A3002 RMK A01 T01060024  RH  057%=      5-min Rain = 0
KRLS 162359Z 01016G21KT 11/02 A3002 RMK A01 T01050023  RH  057%=      5-min Rain = 0
KRLS 170000Z 01016KT 11/02 A3002 RMK A01 T01050023  RH  057%=      5-min Rain = 0
KRLS 170001Z 02017G22KT 10/02 A3002 RMK A01 T01040024  RH  058%=      5-min Rain = 0
KRLS 170002Z 02020KT 10/03 A3002 RMK A01 T01040026  RH  058%=      5-min Rain = 0
KRLS 170003Z 02019KT 10/03 A3002 RMK A01 T01030026  RH  059%=      5-min Rain = 0
KRLS 170004Z 02018KT 10/03 A3002 RMK A01 T01030027  RH  060%=      5-min Rain = 0
KRLS 170005Z 02019KT 10/03 A3003 RMK A01 T01030028  RH  060%=      5-min Rain = 0
KRLS 170006Z 02018KT 10/03 A3003 RMK A01 T01030028  RH  060%=      5-min Rain = 0
KRLS 170007Z 02015G20KT 10/03 A3003 RMK A01 T01020029  RH  060%=      5-min Rain = 0
KRLS 170008Z 02017KT 10/03 A3003 RMK A01 T01020030  RH  061%=      5-min Rain = 0
KRLS 170009Z 02017G22KT 10/03 A3003 RMK A01 T01020030  RH  061%=      5-min Rain = 0
KRLS 170010Z 02019KT 10/03 A3002 RMK A01 T01010029  RH  061%=      5-min Rain = 0
KRLS 170011Z 02018KT 10/03 A3002 RMK A01 T01010030  RH  061%=      5-min Rain = 0
KRLS 170012Z 02019KT 10/03 A3002 RMK A01 T01010029  RH  061%=      5-min Rain = 0
KRLS 170013Z 02019G24KT 10/03 A3002 RMK A01 T01010029  RH  061%=      5-min Rain = 0
KRLS 170014Z 02019G24KT 10/03 A3003 RMK A01 T01000028  RH  061%=      5-min Rain = 0
KRLS 170015Z 02020G26KT 10/03 A3003 RMK A01 T00990028  RH  061%=      5-min Rain = 0
KRLS 170016Z 02023G28KT 10/03 A3003 RMK A01 T00990027  RH  061%=      5-min Rain = 0
KRLS 170017Z 02022KT 10/03 A3003 RMK A01 T00980027  RH  061%=      5-min Rain = 0
KRLS 170018Z 02024G29KT 10/03 A3003 RMK A01 T00970026  RH  061%=      5-min Rain = 0
KRLS 170019Z 02019G25KT 10/03 A3003 RMK A01 T00960026  RH  062%=      5-min Rain = 0
KRLS 170020Z 02018G26KT 10/03 A3003 RMK A01 T00960027  RH  062%=      5-min Rain = 0
KRLS 170021Z 02019G26KT 10/03 A3003 RMK A01 T00960026  RH  061%=      5-min Rain = 0
KRLS 170022Z 02019G24KT 10/03 A3003 RMK A01 T00960025  RH  061%=      5-min Rain = 0
KRLS 170023Z 02019KT 10/02 A3003 RMK A01 T00950024  RH  061%=      5-min Rain = 0
KRLS 170024Z 02021KT 10/02 A3003 RMK A01 T00950023  RH  061%=      5-min Rain = 0
KRLS 170025Z 03021G26KT 10/02 A3003 RMK A01 T00950023  RH  061%=      5-min Rain = 0
KRLS 170026Z 02021G26KT 09/02 A3003 RMK A01 T00940023  RH  061%=      5-min Rain = 0
KRLS 170027Z 02019KT 09/02 A3003 RMK A01 T00940022  RH  061%=      5-min Rain = 0
KRLS 170028Z 01016KT 09/02 A3004 RMK A01 T00940023  RH  061%=      5-min Rain = 0
KRLS 170029Z 01017G22KT 09/02 A3004 RMK A01 T00940023  RH  061%=      5-min Rain = 0
KRLS 170030Z 01017G25KT 09/02 A3004 RMK A01 T00940023  RH  061%=      5-min Rain = 0
KRLS 170031Z 01020G27KT 09/02 A3003 RMK A01 T00930022  RH  061%=      5-min Rain = 0
KRLS 170032Z 01021KT 09/02 A3003 RMK A01 T00920021  RH  061%=      5-min Rain = 0
KRLS 170033Z 01020G26KT 09/02 A3003 RMK A01 T00920021  RH  061%=      5-min Rain = 0
KRLS 170034Z 01017G23KT 09/02 A3003 RMK A01 T00910022  RH  062%=      5-min Rain = 0
KRLS 170035Z 01019G25KT 09/02 A3003 RMK A01 T00910022  RH  062%=      5-min Rain = 0
KRLS 170036Z 02018G24KT 09/02 A3003 RMK A01 T00910020  RH  061%=      5-min Rain = 0
KRLS 170037Z 01020KT 09/02 A3003 RMK A01 T00910020  RH  061%=      5-min Rain = 0
KRLS 170038Z 02019G24KT 09/02 A3003 RMK A01 T00900020  RH  061%=      5-min Rain = 0
KRLS 170039Z 02017KT 09/02 A3003 RMK A01 T00900021  RH  062%=      5-min Rain = 0
KRLS 170040Z 01017G23KT 09/02 A3004 RMK A01 T00900023  RH  063%=      5-min Rain = 0
KRLS 170041Z 01016G21KT 09/02 A3004 RMK A01 T00900023  RH  063%=      5-min Rain = 0
KRLS 170042Z 01015G23KT 09/02 A3004 RMK A01 T00890024  RH  064%=      5-min Rain = 0
KRLS 170043Z 01018G24KT 09/02 A3004 RMK A01 T00880022  RH  063%=      5-min Rain = 0
KRLS 170044Z 01018G24KT 09/02 A3004 RMK A01 T00870021  RH  063%=      5-min Rain = 0
KRLS 170045Z 02020G25KT 09/02 A3003 RMK A01 T00860020  RH  063%=      5-min Rain = 0
KRLS 170046Z 01018KT 09/02 A3004 RMK A01 T00860019  RH  063%=      5-min Rain = 0
KRLS 170047Z 02018KT 09/02 A3004 RMK A01 T00850020  RH  063%=      5-min Rain = 0
KRLS 170048Z 01019G27KT 09/02 A3004 RMK A01 T00850019  RH  063%=      5-min Rain = 0
KRLS 170049Z 01018G25KT 09/02 A3003 RMK A01 T00850017  RH  062%=      5-min Rain = 0
KRLS 170050Z 02021G28KT 08/02 A3003 RMK A01 T00840016  RH  063%=      5-min Rain = 0
KRLS 170051Z 01018G24KT 08/02 A3004 RMK A01 T00830016  RH  063%=      5-min Rain = 0
KRLS 170052Z 01020G25KT 08/02 A3004 RMK A01 T00820015  RH  063%=      5-min Rain = 0
KRLS 170053Z 02018G23KT 08/01 A3004 RMK A01 T00820014  RH  062%=      5-min Rain = 0
KRLS 170054Z 01015KT 08/02 A3004 RMK A01 T00810015  RH  063%=      5-min Rain = 0
KRLS 170055Z 01014KT 08/02 A3004 RMK A01 T00810016  RH  063%=      5-min Rain = 0
KRLS 170056Z 01014G19KT 08/02 A3004 RMK A01 T00810015  RH  063%=      5-min Rain = 0
KRLS 170057Z 01016G21KT 08/02 A3004 RMK A01 T00810015  RH  063%=      5-min Rain = 0
KRLS 170058Z 01017G22KT 08/01 A3004 RMK A01 T00800014  RH  063%=      5-min Rain = 0
KRLS 170059Z 01018G25KT 08/01 A3004 RMK A01 T00800013  RH  063%=      5-min Rain = 0
KRLS 170100Z 01018G24KT 08/01 A3004 RMK A01 T00790013  RH  063%=      5-min Rain = 0
KRLS 170101Z 01016KT 08/01 A3004 RMK A01 T00790013  RH  063%=      5-min Rain = 0
KRLS 170102Z 01019G25KT 08/01 A3004 RMK A01 T00790013  RH  063%=      5-min Rain = 0
KRLS 170103Z 01017KT 08/01 A3004 RMK A01 T00790013  RH  063%=      5-min Rain = 0
KRLS 170104Z 01016G21KT 08/01 A3004 RMK A01 T00790013  RH  063%=      5-min Rain = 0
KRLS 170105Z 02016KT 08/01 A3004 RMK A01 T00780013  RH  063%=      5-min Rain = 0
KRLS 170106Z 01013KT 08/01 A3004 RMK A01 T00780014  RH  064%=      5-min Rain = 0
KRLS 170107Z 01014KT 08/01 A3004 RMK A01 T00780014  RH  064%=      5-min Rain = 0
KRLS 170108Z 01017G22KT 08/01 A3005 RMK A01 T00780013  RH  063%=      5-min Rain = 0
KRLS 170109Z 01015KT 08/01 A3005 RMK A01 T00780013  RH  063%=      5-min Rain = 0
KRLS 170110Z 01015G22KT 08/01 A3005 RMK A01 T00780013  RH  064%=      5-min Rain = 0
KRLS 170111Z 01015KT 08/01 A3005 RMK A01 T00780014  RH  064%=      5-min Rain = 0
KRLS 170112Z 02015G20KT 08/01 A3005 RMK A01 T00770014  RH  064%=      5-min Rain = 0
KRLS 170113Z 02015KT 08/02 A3005 RMK A01 T00770015  RH  065%=      5-min Rain = 0
KRLS 170114Z 01015G20KT 08/01 A3005 RMK A01 T00770014  RH  065%=      5-min Rain = 0
KRLS 170115Z 02013G18KT 08/01 A3005 RMK A01 T00760014  RH  065%=      5-min Rain = 0
KRLS 170116Z 02013KT 08/02 A3006 RMK A01 T00760015  RH  065%=      5-min Rain = 0
KRLS 170117Z 02014KT 08/02 A3006 RMK A01 T00760015  RH  065%=      5-min Rain = 0
KRLS 170118Z 02013KT 08/01 A3006 RMK A01 T00750014  RH  065%=      5-min Rain = 0
KRLS 170119Z 02012KT 08/01 A3006 RMK A01 T00750014  RH  065%=      5-min Rain = 0
KRLS 170120Z 02014KT 08/01 A3006 RMK A01 T00750014  RH  065%=      5-min Rain = 0
KRLS 170121Z 01013KT 08/01 A3006 RMK A01 T00750014  RH  065%=      5-min Rain = 0
KRLS 170122Z 01012KT 08/02 A3007 RMK A01 T00750015  RH  066%=      5-min Rain = 0
KRLS 170123Z 02016KT 08/01 A3007 RMK A01 T00750014  RH  065%=      5-min Rain = 0
KRLS 170124Z 02016KT 08/01 A3007 RMK A01 T00750013  RH  065%=      5-min Rain = 0
KRLS 170125Z 01014KT 08/01 A3007 RMK A01 T00750013  RH  065%=      5-min Rain = 0
KRLS 170126Z 01013KT 08/01 A3007 RMK A01 T00750013  RH  065%=      5-min Rain = 0
KRLS 170127Z 01012G17KT 08/01 A3007 RMK A01 T00750014  RH  065%=      5-min Rain = 0
KRLS 170128Z 01016KT 08/01 A3007 RMK A01 T00750014  RH  065%=      5-min Rain = 0
KRLS 170129Z 01013KT 08/01 A3007 RMK A01 T00750013  RH  065%=      5-min Rain = 0
KRLS 170130Z 01014G19KT 08/01 A3007 RMK A01 T00750014  RH  065%=      5-min Rain = 0
KRLS 170131Z 01015KT 08/01 A3007 RMK A01 T00750013  RH  065%=      5-min Rain = 0
KRLS 170132Z 02015KT 08/01 A3007 RMK A01 T00750013  RH  065%=      5-min Rain = 0
KRLS 170133Z 01014KT 08/01 A3008 RMK A01 T00750014  RH  065%=      5-min Rain = 0
KRLS 170134Z 01013KT 08/01 A3008 RMK A01 T00750014  RH  065%=      5-min Rain = 0
KRLS 170135Z 02013G18KT 08/02 A3008 RMK A01 T00750015  RH  066%=      5-min Rain = 0
KRLS 170136Z 02015KT 08/02 A3007 RMK A01 T00750016  RH  066%=      5-min Rain = 0
KRLS 170137Z 02013KT 08/02 A3008 RMK A01 T00750015  RH  066%=      5-min Rain = 0
KRLS 170138Z 02013KT 08/02 A3008 RMK A01 T00750016  RH  066%=      5-min Rain = 0
KRLS 170139Z 02014KT 08/02 A3008 RMK A01 T00750016  RH  066%=      5-min Rain = 0
KRLS 170140Z 02013KT 08/02 A3008 RMK A01 T00750016  RH  066%=      5-min Rain = 0
KRLS 170141Z 02012KT 08/02 A3008 RMK A01 T00750017  RH  067%=      5-min Rain = 0
KRLS 170142Z 02015KT 08/02 A3008 RMK A01 T00750017  RH  067%=      5-min Rain = 0
KRLS 170143Z 02013KT 08/02 A3008 RMK A01 T00750016  RH  067%=      5-min Rain = 0
KRLS 170144Z 02012KT 07/02 A3008 RMK A01 T00740018  RH  067%=      5-min Rain = 0
KRLS 170145Z 02012KT 07/02 A3008 RMK A01 T00740018  RH  068%=      5-min Rain = 0
KRLS 170146Z 02011G16KT 07/02 A3008 RMK A01 T00740019  RH  068%=      5-min Rain = 0
KRLS 170147Z 02015KT 07/02 A3008 RMK A01 T00740018  RH  068%=      5-min Rain = 0
KRLS 170148Z 02014KT 07/02 A3008 RMK A01 T00740018  RH  067%=      5-min Rain = 0
KRLS 170149Z 02013KT 07/02 A3008 RMK A01 T00740018  RH  068%=      5-min Rain = 0
KRLS 170150Z 02014KT 07/02 A3007 RMK A01 T00740019  RH  068%=      5-min Rain = 0
KRLS 170151Z 02017KT 07/02 A3007 RMK A01 T00740019  RH  068%=      5-min Rain = 0
KRLS 170152Z 02016KT 07/02 A3007 RMK A01 T00740019  RH  068%=      5-min Rain = 0
KRLS 170153Z 03014KT 07/02 A3007 RMK A01 T00740019  RH  068%=      5-min Rain = 0
KRLS 170154Z 03016G21KT 07/02 A3008 RMK A01 T00730019  RH  068%=      5-min Rain = 0
KRLS 170155Z 03017G22KT 07/02 A3008 RMK A01 T00730019  RH  068%=      5-min Rain = 0
KRLS 170156Z 02015KT 07/02 A3008 RMK A01 T00730019  RH  068%=      5-min Rain = 0
KRLS 170157Z 02017KT 07/02 A3008 RMK A01 T00730019  RH  068%=      5-min Rain = 0
KRLS 170158Z 03015KT 07/02 A3008 RMK A01 T00730018  RH  068%=      5-min Rain = 0
KRLS 170159Z 03016KT 07/02 A3008 RMK A01 T00730019  RH  069%=      5-min Rain = 0
KRLS 170200Z 03016KT 07/02 A3008 RMK A01 T00730018  RH  068%=      5-min Rain = 0
KRLS 170201Z 02015KT 07/02 A3008 RMK A01 T00720018  RH  068%=      5-min Rain = 0
KRLS 170202Z 03015G20KT 07/02 A3008 RMK A01 T00720019  RH  069%=      5-min Rain = 0
KRLS 170203Z 03016G21KT 07/02 A3008 RMK A01 T00720019  RH  069%=      5-min Rain = 0
KRLS 170204Z 02017KT 07/02 A3008 RMK A01 T00720018  RH  068%=      5-min Rain = 0
KRLS 170205Z 02017G22KT 07/02 A3008 RMK A01 T00720018  RH  068%=      5-min Rain = 0
KRLS 170206Z 02017KT 07/02 A3008 RMK A01 T00720018  RH  068%=      5-min Rain = 0
KRLS 170207Z 03017KT 07/02 A3008 RMK A01 T00720018  RH  068%=      5-min Rain = 0
KRLS 170208Z 03017KT 07/02 A3008 RMK A01 T00720018  RH  068%=      5-min Rain = 0
KRLS 170209Z 03018G23KT 07/02 A3008 RMK A01 T00720018  RH  069%=      5-min Rain = 0
KRLS 170210Z 02021KT 07/02 A3008 RMK A01 T00720017  RH  068%=      5-min Rain = 0
KRLS 170211Z 03020KT 07/02 A3009 RMK A01 T00710017  RH  068%=      5-min Rain = 0
KRLS 170212Z 03018KT 07/02 A3009 RMK A01 T00710017  RH  069%=      5-min Rain = 0
KRLS 170213Z 02019G24KT 07/02 A3009 RMK A01 T00710018  RH  069%=      5-min Rain = 0
KRLS 170214Z 02017G23KT 07/02 A3009 RMK A01 T00710018  RH  069%=      5-min Rain = 0
KRLS 170215Z 02017KT 07/02 A3009 RMK A01 T00710018  RH  069%=      5-min Rain = 0
KRLS 170216Z 03019G26KT 07/02 A3009 RMK A01 T00710018  RH  069%=      5-min Rain = 0
KRLS 170217Z 03018G25KT 07/02 A3009 RMK A01 T00700017  RH  069%=      5-min Rain = 0
KRLS 170218Z 03019KT 07/02 A3009 RMK A01 T00700017  RH  069%=      5-min Rain = 0
KRLS 170219Z 03018G24KT 07/02 A3009 RMK A01 T00700017  RH  069%=      5-min Rain = 0
KRLS 170220Z 02018KT 07/02 A3009 RMK A01 T00700017  RH  069%=      5-min Rain = 0
KRLS 170221Z 02017G22KT 07/02 A3009 RMK A01 T00700017  RH  069%=      5-min Rain = 0
KRLS 170222Z 02016KT 07/02 A301 RMK A01 T00700018  RH  069%=      5-min Rain = 0
KRLS 170223Z 02015G21KT 07/02 A301 RMK A01 T00700019  RH  070%=      5-min Rain = 0
KRLS 170224Z 03018KT 07/02 A3009 RMK A01 T00700018  RH  070%=      5-min Rain = 0
KRLS 170225Z 02018G23KT 07/02 A301 RMK A01 T00690017  RH  069%=      5-min Rain = 0
KRLS 170226Z 03015KT 07/02 A301 RMK A01 T00690017  RH  070%=      5-min Rain = 0
KRLS 170227Z 03016G21KT 07/02 A301 RMK A01 T00690018  RH  070%=      5-min Rain = 0
KRLS 170228Z 02016G22KT 07/02 A301 RMK A01 T00690017  RH  070%=      5-min Rain = 0
KRLS 170229Z 02019KT 07/02 A301 RMK A01 T00690017  RH  070%=      5-min Rain = 0
KRLS 170230Z 02020G25KT 07/02 A301 RMK A01 T00680016  RH  069%=      5-min Rain = 0
KRLS 170231Z 03020G27KT 07/02 A301 RMK A01 T00680015  RH  069%=      5-min Rain = 0
KRLS 170232Z 03018KT 07/02 A3011 RMK A01 T00680015  RH  069%=      5-min Rain = 0
KRLS 170233Z 03019G24KT 07/02 A3011 RMK A01 T00680015  RH  069%=      5-min Rain = 0
KRLS 170234Z 02018G23KT 07/02 A3011 RMK A01 T00680015  RH  069%=      5-min Rain = 0
KRLS 170235Z 02018KT 07/02 A3011 RMK A01 T00680015  RH  069%=      5-min Rain = 0
KRLS 170236Z 02018G24KT 07/02 A3011 RMK A01 T00680015  RH  069%=      5-min Rain = 0
KRLS 170237Z 02018KT 07/02 A3011 RMK A01 T00680015  RH  069%=      5-min Rain = 0
KRLS 170238Z 02020KT 07/01 A3011 RMK A01 T00680014  RH  069%=      5-min Rain = 0
KRLS 170239Z 02015G20KT 07/01 A3011 RMK A01 T00670013  RH  068%=      5-min Rain = 0
KRLS 170240Z 02015G22KT 07/01 A3012 RMK A01 T00670014  RH  069%=      5-min Rain = 0
KRLS 170241Z 02019G25KT 07/01 A3011 RMK A01 T00670013  RH  068%=      5-min Rain = 0
KRLS 170242Z 02018G24KT 07/01 A3011 RMK A01 T00670012  RH  068%=      5-min Rain = 0
KRLS 170243Z 02017KT 07/01 A3011 RMK A01 T00670012  RH  068%=      5-min Rain = 0
KRLS 170244Z 01018G24KT 07/01 A3012 RMK A01 T00670012  RH  068%=      5-min Rain = 0
KRLS 170245Z 01019G26KT 07/01 A3012 RMK A01 T00670012  RH  068%=      5-min Rain = 0
KRLS 170246Z 01018G23KT 07/01 A3012 RMK A01 T00670012  RH  068%=      5-min Rain = 0
KRLS 170247Z 01019KT 07/01 A3012 RMK A01 T00670012  RH  068%=      5-min Rain = 0
KRLS 170248Z 01018G24KT 07/01 A3012 RMK A01 T00660013  RH  069%=      5-min Rain = 0
KRLS 170249Z 01016G22KT 07/01 A3012 RMK A01 T00660012  RH  069%=      5-min Rain = 0
KRLS 170250Z 01017KT 07/01 A3012 RMK A01 T00660013  RH  069%=      5-min Rain = 0
KRLS 170251Z 01016G21KT 07/01 A3012 RMK A01 T00660013  RH  069%=      5-min Rain = 0
KRLS 170252Z 02020G25KT 07/01 A3012 RMK A01 T00660013  RH  069%=      5-min Rain = 0
KRLS 170253Z 02018G23KT 07/01 A3012 RMK A01 T00660013  RH  069%=      5-min Rain = 0
KRLS 170254Z 01018KT 07/01 A3012 RMK A01 T00650013  RH  069%=      5-min Rain = 0
KRLS 170255Z 02015G20KT 07/01 A3012 RMK A01 T00650013  RH  069%=      5-min Rain = 0
KRLS 170256Z 01017G22KT 07/01 A3012 RMK A01 T00650013  RH  070%=      5-min Rain = 0
KRLS 170257Z 01018G23KT 07/01 A3012 RMK A01 T00650013  RH  069%=      5-min Rain = 0
KRLS 170258Z 02018G23KT 07/01 A3012 RMK A01 T00650012  RH  069%=      5-min Rain = 0
KRLS 170259Z 02015KT 07/01 A3012 RMK A01 T00650013  RH  069%=      5-min Rain = 0
KRLS 170300Z 02019KT 07/01 A3012 RMK A01 T00650013  RH  069%=      5-min Rain = 0
KRLS 170301Z 01017G22KT 07/01 A3012 RMK A01 T00650012  RH  069%=      5-min Rain = 0
KRLS 170302Z 01017KT 07/01 A3012 RMK A01 T00650013  RH  069%=      5-min Rain = 0
KRLS 170303Z 02018G24KT 07/01 A3012 RMK A01 T00650013  RH  069%=      5-min Rain = 0
KRLS 170304Z 02019G24KT 07/01 A3012 RMK A01 T00650012  RH  069%=      5-min Rain = 0
KRLS 170305Z 02019G24KT 06/01 A3012 RMK A01 T00640012  RH  069%=      5-min Rain = 0
KRLS 170306Z 02017G22KT 06/01 A3012 RMK A01 T00640012  RH  069%=      5-min Rain = 0
KRLS 170307Z 02017G22KT 06/01 A3012 RMK A01 T00640012  RH  069%=      5-min Rain = 0
KRLS 170308Z 01017G22KT 06/01 A3012 RMK A01 T00640013  RH  069%=      5-min Rain = 0
KRLS 170309Z 01017KT 06/01 A3012 RMK A01 T00640012  RH  069%=      5-min Rain = 0
KRLS 170310Z 01017KT 06/01 A3012 RMK A01 T00640012  RH  069%=      5-min Rain = 0
KRLS 170311Z 01015G20KT 06/01 A3012 RMK A01 T00640013  RH  070%=      5-min Rain = 0
KRLS 170312Z 01017KT 06/01 A3012 RMK A01 T00640013  RH  070%=      5-min Rain = 0
KRLS 170313Z 01017G23KT 06/01 A3012 RMK A01 T00640013  RH  070%=      5-min Rain = 0
KRLS 170314Z 01019G24KT 06/01 A3012 RMK A01 T00640013  RH  070%=      5-min Rain = 0
KRLS 170315Z 02017G22KT 06/01 A3012 RMK A01 T00630013  RH  070%=      5-min Rain = 0
KRLS 170316Z 02016KT 06/01 A3012 RMK A01 T00630013  RH  070%=      5-min Rain = 0
KRLS 170317Z 02019KT 06/01 A3012 RMK A01 T00630013  RH  070%=      5-min Rain = 0
KRLS 170318Z 02017G22KT 06/01 A3012 RMK A01 T00630013  RH  070%=      5-min Rain = 0
KRLS 170319Z 02016KT 06/01 A3012 RMK A01 T00630013  RH  070%=      5-min Rain = 0
KRLS 170320Z 02014KT 06/01 A3012 RMK A01 T00630014  RH  071%=      5-min Rain = 0
KRLS 170321Z 02014G20KT 06/01 A3011 RMK A01 T00620014  RH  071%=      5-min Rain = 0
KRLS 170322Z 02019G24KT 06/01 A3011 RMK A01 T00620014  RH  071%=      5-min Rain = 0
KRLS 170323Z 02018KT 06/01 A3011 RMK A01 T00620013  RH  071%=      5-min Rain = 0
KRLS 170324Z 02017G23KT 06/01 A3011 RMK A01 T00620013  RH  071%=      5-min Rain = 0
KRLS 170325Z 02020KT 06/01 A3011 RMK A01 T00620013  RH  071%=      5-min Rain = 0
KRLS 170326Z 02018G24KT 06/01 A3011 RMK A01 T00620013  RH  071%=      5-min Rain = 0
KRLS 170327Z 02019KT 06/01 A3011 RMK A01 T00620013  RH  071%=      5-min Rain = 0
KRLS 170328Z 01017G22KT 06/01 A3011 RMK A01 T00620013  RH  071%=      5-min Rain = 0
KRLS 170329Z 01020G26KT 06/01 A3011 RMK A01 T00620013  RH  071%=      5-min Rain = 0
KRLS 170330Z 01017G23KT 06/01 A3012 RMK A01 T00620013  RH  071%=      5-min Rain = 0
KRLS 170331Z 01016KT 06/01 A3011 RMK A01 T00620013  RH  071%=      5-min Rain = 0
KRLS 170332Z 01016KT 06/01 A3011 RMK A01 T00620013  RH  071%=      5-min Rain = 0
KRLS 170333Z 01015G21KT 06/01 A3012 RMK A01 T00620013  RH  071%=      5-min Rain = 0
KRLS 170334Z 01015KT 06/01 A3012 RMK A01 T00620013  RH  071%=      5-min Rain = 0
KRLS 170335Z 01016KT 06/01 A3012 RMK A01 T00620013  RH  071%=      5-min Rain = 0
KRLS 170336Z 01017KT 06/01 A3012 RMK A01 T00620013  RH  071%=      5-min Rain = 0
KRLS 170337Z 01016KT 06/01 A3012 RMK A01 T00620012  RH  071%=      5-min Rain = 0
KRLS 170338Z 01016KT 06/01 A3012 RMK A01 T00610012  RH  071%=      5-min Rain = 0
KRLS 170339Z 01016KT 06/01 A3012 RMK A01 T00620012  RH  071%=      5-min Rain = 0
KRLS 170340Z 01014G21KT 06/01 A3012 RMK A01 T00620012  RH  071%=      5-min Rain = 0
KRLS 170341Z 01016KT 06/01 A3012 RMK A01 T00620012  RH  071%=      5-min Rain = 0
KRLS 170342Z 01015KT 06/01 A3012 RMK A01 T00620011  RH  070%=      5-min Rain = 0
KRLS 170343Z 01016G21KT 06/01 A3012 RMK A01 T00620011  RH  070%=      5-min Rain = 0
KRLS 170344Z 01015KT 06/01 A3012 RMK A01 T00620011  RH  070%=      5-min Rain = 0
KRLS 170345Z 02014KT 06/01 A3012 RMK A01 T00620012  RH  071%=      5-min Rain = 0
KRLS 170346Z 02015KT 06/01 A3012 RMK A01 T00610013  RH  071%=      5-min Rain = 0
KRLS 170347Z 02015KT 06/01 A3012 RMK A01 T00610012  RH  071%=      5-min Rain = 0
KRLS 170348Z 02012KT 06/01 A3012 RMK A01 T00610013  RH  071%=      5-min Rain = 0
KRLS 170349Z 02012KT 06/01 A3012 RMK A01 T00610013  RH  071%=      5-min Rain = 0
KRLS 170350Z 03012G17KT 06/01 A3013 RMK A01 T00610013  RH  072%=      5-min Rain = 0
KRLS 170351Z 02014KT 06/01 A3013 RMK A01 T00610013  RH  071%=      5-min Rain = 0
KRLS 170352Z 02012KT 06/01 A3013 RMK A01 T00610013  RH  071%=      5-min Rain = 0
KRLS 170353Z 03011KT 06/01 A3013 RMK A01 T00600013  RH  072%=      5-min Rain = 0
KRLS 170354Z 03014KT 06/01 A3013 RMK A01 T00600014  RH  072%=      5-min Rain = 0
KRLS 170355Z 02013KT 06/01 A3013 RMK A01 T00600014  RH  072%=      5-min Rain = 0
KRLS 170356Z 02012KT 06/01 A3013 RMK A01 T00600014  RH  072%=      5-min Rain = 0
KRLS 170357Z 02015KT 06/01 A3013 RMK A01 T00600014  RH  073%=      5-min Rain = 0
KRLS 170358Z 02015G20KT 06/01 A3013 RMK A01 T00600014  RH  072%=      5-min Rain = 0
KRLS 170359Z 02014KT 06/01 A3013 RMK A01 T00600014  RH  072%=      5-min Rain = 0
KRLS 170400Z 02017KT 06/01 A3013 RMK A01 T00590013  RH  072%=      5-min Rain = 0
KRLS 170401Z 02016G21KT 06/01 A3013 RMK A01 T00590012  RH  072%=      5-min Rain = 0
KRLS 170402Z 02015KT 06/01 A3013 RMK A01 T00590013  RH  072%=      5-min Rain = 0
KRLS 170403Z 02017KT 06/01 A3013 RMK A01 T00590013  RH  072%=      5-min Rain = 0
KRLS 170404Z 02014KT 06/01 A3013 RMK A01 T00590012  RH  072%=      5-min Rain = 0
KRLS 170405Z 02014KT 06/01 A3013 RMK A01 T00590013  RH  072%=      5-min Rain = 0
KRLS 170406Z 02014KT 06/01 A3013 RMK A01 T00590013  RH  072%=      5-min Rain = 0
KRLS 170407Z 02013G18KT 06/01 A3013 RMK A01 T00590013  RH  072%=      5-min Rain = 0
KRLS 170408Z 02013G18KT 06/01 A3013 RMK A01 T00580013  RH  072%=      5-min Rain = 0
KRLS 170409Z 02011KT 06/01 A3013 RMK A01 T00580013  RH  073%=      5-min Rain = 0
KRLS 170410Z 02013KT 06/01 A3014 RMK A01 T00580013  RH  073%=      5-min Rain = 0
KRLS 170411Z 02014KT 06/01 A3013 RMK A01 T00580012  RH  072%=      5-min Rain = 0
KRLS 170412Z 02013G18KT 06/01 A3013 RMK A01 T00580012  RH  072%=      5-min Rain = 0
KRLS 170413Z 02011KT 06/01 A3013 RMK A01 T00580012  RH  073%=      5-min Rain = 0
KRLS 170414Z 02012KT 06/01 A3013 RMK A01 T00580013  RH  073%=      5-min Rain = 0
KRLS 170415Z 02012KT 06/01 A3013 RMK A01 T00580012  RH  073%=      5-min Rain = 0
KRLS 170416Z 03012KT 06/01 A3013 RMK A01 T00580012  RH  072%=      5-min Rain = 0
KRLS 170417Z 03017G25KT 06/01 A3013 RMK A01 T00580012  RH  072%=      5-min Rain = 0
KRLS 170418Z 02015KT 06/01 A3013 RMK A01 T00580009  RH  071%=      5-min Rain = 0
KRLS 170419Z 02012KT 06/01 A3013 RMK A01 T00580010  RH  071%=      5-min Rain = 0
KRLS 170420Z 03013KT 06/01 A3013 RMK A01 T00580010  RH  071%=      5-min Rain = 0
KRLS 170421Z 03016G22KT 06/01 A3013 RMK A01 T00580010  RH  071%=      5-min Rain = 0
KRLS 170422Z 03015G21KT 06/01 A3013 RMK A01 T00570009  RH  071%=      5-min Rain = 0
KRLS 170423Z 02014KT 06/01 A3013 RMK A01 T00570009  RH  071%=      5-min Rain = 0
KRLS 170424Z 03017KT 06/01 A3013 RMK A01 T00570009  RH  071%=      5-min Rain = 0
KRLS 170425Z 02015KT 06/01 A3013 RMK A01 T00570008  RH  071%=      5-min Rain = 0
KRLS 170426Z 02017KT 06/01 A3013 RMK A01 T00570009  RH  071%=      5-min Rain = 0
KRLS 170427Z 02016KT 06/01 A3013 RMK A01 T00570008  RH  070%=      5-min Rain = 0
KRLS 170428Z 03015KT 06/01 A3013 RMK A01 T00570008  RH  070%=      5-min Rain = 0
KRLS 170429Z 02017KT 06/01 A3013 RMK A01 T00570007  RH  070%=      5-min Rain = 0
KRLS 170430Z 02014KT 06/01 A3013 RMK A01 T00570007  RH  070%=      5-min Rain = 0
KRLS 170431Z 02016G21KT 06/01 A3013 RMK A01 T00570008  RH  071%=      5-min Rain = 0
KRLS 170432Z 02016KT 06/01 A3013 RMK A01 T00570007  RH  071%=      5-min Rain = 0
KRLS 170433Z 02016KT 06/01 A3013 RMK A01 T00570008  RH  071%=      5-min Rain = 0
KRLS 170434Z 02017KT 06/01 A3013 RMK A01 T00560007  RH  071%=      5-min Rain = 0
KRLS 170435Z 02013KT 06/01 A3013 RMK A01 T00570007  RH  071%=      5-min Rain = 0
KRLS 170436Z 02014G20KT 06/01 A3013 RMK A01 T00560008  RH  071%=      5-min Rain = 0
KRLS 170437Z 02014KT 06/01 A3013 RMK A01 T00560007  RH  071%=      5-min Rain = 0
KRLS 170438Z 02015KT 06/01 A3013 RMK A01 T00560007  RH  071%=      5-min Rain = 0
KRLS 170439Z 02015KT 06/01 A3013 RMK A01 T00560007  RH  071%=      5-min Rain = 0
KRLS 170440Z 02015KT 06/01 A3013 RMK A01 T00560007  RH  071%=      5-min Rain = 0
KRLS 170441Z 02015KT 06/01 A3013 RMK A01 T00560007  RH  071%=      5-min Rain = 0
KRLS 170442Z 02016KT 06/01 A3013 RMK A01 T00560007  RH  071%=      5-min Rain = 0
KRLS 170443Z 02016KT 06/01 A3013 RMK A01 T00560007  RH  071%=      5-min Rain = 0
KRLS 170444Z 02015KT 06/01 A3013 RMK A01 T00560006  RH  070%=      5-min Rain = 0
KRLS 170445Z 01015KT 06/01 A3013 RMK A01 T00560007  RH  071%=      5-min Rain = 0
KRLS 170446Z 01014KT 06/01 A3013 RMK A01 T00560007  RH  071%=      5-min Rain = 0
KRLS 170447Z 02015G20KT 06/01 A3013 RMK A01 T00550007  RH  071%=      5-min Rain = 0
KRLS 170448Z 02014KT 06/01 A3013 RMK A01 T00550007  RH  071%=      5-min Rain = 0
KRLS 170449Z 02012KT 06/01 A3013 RMK A01 T00550007  RH  071%=      5-min Rain = 0
KRLS 170450Z 02014G20KT 05/01 A3013 RMK A01 T00540008  RH  072%=      5-min Rain = 0
KRLS 170451Z 02013KT 05/01 A3013 RMK A01 T00540007  RH  072%=      5-min Rain = 0
KRLS 170452Z 02015KT 05/01 A3013 RMK A01 T00540007  RH  072%=      5-min Rain = 0
KRLS 170453Z 02015KT 05/01 A3013 RMK A01 T00540006  RH  071%=      5-min Rain = 0
KRLS 170454Z 02012KT 05/01 A3013 RMK A01 T00540007  RH  072%=      5-min Rain = 0
KRLS 170455Z 02014KT 05/01 A3013 RMK A01 T00540007  RH  072%=      5-min Rain = 0
KRLS 170456Z 02014KT 05/01 A3013 RMK A01 T00540007  RH  072%=      5-min Rain = 0
KRLS 170457Z 02013G18KT 05/01 A3013 RMK A01 T00540007  RH  072%=      5-min Rain = 0
KRLS 170458Z 02012KT 05/01 A3013 RMK A01 T00540007  RH  072%=      5-min Rain = 0
KRLS 170459Z 02015KT 05/01 A3013 RMK A01 T00530007  RH  072%=      5-min Rain = 0

Page generated in 0.1178 seconds.